<?xml version="1.0" encoding="UTF-8" standalone="no" ?>
<gpx xmlns="http://www.topografix.com/GPX/1/1" xmlns:xsi="http://www.w3.org/2001/XMLSchema-instance" xsi:schemaLocation="http://www.topografix.com/GPX/1/1 http://www.topografix.com/GPX/1/1/gpx.xsd" version="1.1" creator="VisuGPX - https://www.visugpx.com">
  <metadata>
    <name>St Pierre le Déchausselat</name>
    <desc><![CDATA[Randonnée autour du milieu habité mais pas trop au nord des Vans
]]></desc>
  </metadata>
  <trk>
    <name><![CDATA[St Pierre le Déchausselat]]></name>
    <trkseg>
      <trkpt lat="44.44858" lon="4.12577">
        <ele>233.9</ele>
        <time>2012-11-13T12:53:27Z</time>
      </trkpt>
      <trkpt lat="44.44858" lon="4.12577">
        <ele>289</ele>
        <time>2012-11-13T12:53:42Z</time>
      </trkpt>
      <trkpt lat="44.44849" lon="4.12575">
        <ele>294</ele>
        <time>2012-11-13T12:54:03Z</time>
      </trkpt>
      <trkpt lat="44.4484" lon="4.12579">
        <ele>294</ele>
        <time>2012-11-13T12:54:11Z</time>
      </trkpt>
      <trkpt lat="44.44831" lon="4.12583">
        <ele>292.25</ele>
        <time>2012-11-13T12:54:20Z</time>
      </trkpt>
      <trkpt lat="44.44822" lon="4.12586">
        <ele>291</ele>
        <time>2012-11-13T12:54:29Z</time>
      </trkpt>
      <trkpt lat="44.44812" lon="4.12587">
        <ele>290.25</ele>
        <time>2012-11-13T12:54:39Z</time>
      </trkpt>
      <trkpt lat="44.44802" lon="4.1259">
        <ele>290.75</ele>
        <time>2012-11-13T12:54:48Z</time>
      </trkpt>
      <trkpt lat="44.44793" lon="4.12586">
        <ele>291.25</ele>
        <time>2012-11-13T12:54:54Z</time>
      </trkpt>
      <trkpt lat="44.44784" lon="4.12583">
        <ele>291.25</ele>
        <time>2012-11-13T12:55:02Z</time>
      </trkpt>
      <trkpt lat="44.44775" lon="4.12579">
        <ele>289</ele>
        <time>2012-11-13T12:55:17Z</time>
      </trkpt>
      <trkpt lat="44.44767" lon="4.1257">
        <ele>289</ele>
        <time>2012-11-13T12:55:24Z</time>
      </trkpt>
      <trkpt lat="44.44759" lon="4.12562">
        <ele>289</ele>
        <time>2012-11-13T12:55:33Z</time>
      </trkpt>
      <trkpt lat="44.44752" lon="4.12553">
        <ele>289</ele>
        <time>2012-11-13T12:55:41Z</time>
      </trkpt>
      <trkpt lat="44.44745" lon="4.12544">
        <ele>289.5</ele>
        <time>2012-11-13T12:55:47Z</time>
      </trkpt>
      <trkpt lat="44.44737" lon="4.12537">
        <ele>290</ele>
        <time>2012-11-13T12:55:55Z</time>
      </trkpt>
      <trkpt lat="44.44728" lon="4.12533">
        <ele>290</ele>
        <time>2012-11-13T12:56:03Z</time>
      </trkpt>
      <trkpt lat="44.4472" lon="4.12525">
        <ele>290</ele>
        <time>2012-11-13T12:56:09Z</time>
      </trkpt>
      <trkpt lat="44.44712" lon="4.12517">
        <ele>289</ele>
        <time>2012-11-13T12:56:16Z</time>
      </trkpt>
      <trkpt lat="44.44704" lon="4.12511">
        <ele>288.25</ele>
        <time>2012-11-13T12:56:23Z</time>
      </trkpt>
      <trkpt lat="44.44695" lon="4.12504">
        <ele>288</ele>
        <time>2012-11-13T12:56:31Z</time>
      </trkpt>
      <trkpt lat="44.44686" lon="4.12497">
        <ele>288</ele>
        <time>2012-11-13T12:56:41Z</time>
      </trkpt>
      <trkpt lat="44.44678" lon="4.12492">
        <ele>288</ele>
        <time>2012-11-13T12:56:49Z</time>
      </trkpt>
      <trkpt lat="44.44668" lon="4.12488">
        <ele>288.75</ele>
        <time>2012-11-13T12:56:57Z</time>
      </trkpt>
      <trkpt lat="44.44659" lon="4.12484">
        <ele>288</ele>
        <time>2012-11-13T12:57:03Z</time>
      </trkpt>
      <trkpt lat="44.44649" lon="4.12481">
        <ele>288</ele>
        <time>2012-11-13T12:57:10Z</time>
      </trkpt>
      <trkpt lat="44.4464" lon="4.12478">
        <ele>289</ele>
        <time>2012-11-13T12:57:17Z</time>
      </trkpt>
      <trkpt lat="44.44632" lon="4.12472">
        <ele>289</ele>
        <time>2012-11-13T12:57:23Z</time>
      </trkpt>
      <trkpt lat="44.44625" lon="4.12462">
        <ele>289.25</ele>
        <time>2012-11-13T12:57:32Z</time>
      </trkpt>
      <trkpt lat="44.44618" lon="4.12452">
        <ele>289</ele>
        <time>2012-11-13T12:57:40Z</time>
      </trkpt>
      <trkpt lat="44.4461" lon="4.12445">
        <ele>289</ele>
        <time>2012-11-13T12:57:47Z</time>
      </trkpt>
      <trkpt lat="44.44603" lon="4.12437">
        <ele>289</ele>
        <time>2012-11-13T12:57:54Z</time>
      </trkpt>
      <trkpt lat="44.44597" lon="4.12427">
        <ele>289.75</ele>
        <time>2012-11-13T12:58:03Z</time>
      </trkpt>
      <trkpt lat="44.44592" lon="4.12416">
        <ele>292</ele>
        <time>2012-11-13T12:58:12Z</time>
      </trkpt>
      <trkpt lat="44.44583" lon="4.1241">
        <ele>292</ele>
        <time>2012-11-13T12:58:32Z</time>
      </trkpt>
      <trkpt lat="44.44574" lon="4.12407">
        <ele>291.75</ele>
        <time>2012-11-13T12:58:59Z</time>
      </trkpt>
      <trkpt lat="44.44565" lon="4.12404">
        <ele>289.25</ele>
        <time>2012-11-13T12:59:10Z</time>
      </trkpt>
      <trkpt lat="44.4457" lon="4.12393">
        <ele>288</ele>
        <time>2012-11-13T12:59:28Z</time>
      </trkpt>
      <trkpt lat="44.44574" lon="4.12381">
        <ele>287.25</ele>
        <time>2012-11-13T12:59:37Z</time>
      </trkpt>
      <trkpt lat="44.44573" lon="4.12369">
        <ele>287</ele>
        <time>2012-11-13T12:59:46Z</time>
      </trkpt>
      <trkpt lat="44.4457" lon="4.12356">
        <ele>285.75</ele>
        <time>2012-11-13T12:59:57Z</time>
      </trkpt>
      <trkpt lat="44.44572" lon="4.12343">
        <ele>285.5</ele>
        <time>2012-11-13T13:00:13Z</time>
      </trkpt>
      <trkpt lat="44.44574" lon="4.12331">
        <ele>286</ele>
        <time>2012-11-13T13:00:26Z</time>
      </trkpt>
      <trkpt lat="44.44577" lon="4.12319">
        <ele>287</ele>
        <time>2012-11-13T13:00:33Z</time>
      </trkpt>
      <trkpt lat="44.44581" lon="4.12306">
        <ele>286</ele>
        <time>2012-11-13T13:00:42Z</time>
      </trkpt>
      <trkpt lat="44.44584" lon="4.12294">
        <ele>287</ele>
        <time>2012-11-13T13:00:51Z</time>
      </trkpt>
      <trkpt lat="44.44589" lon="4.12283">
        <ele>286.75</ele>
        <time>2012-11-13T13:01:06Z</time>
      </trkpt>
      <trkpt lat="44.44597" lon="4.12276">
        <ele>284.5</ele>
        <time>2012-11-13T13:01:11Z</time>
      </trkpt>
      <trkpt lat="44.44604" lon="4.12267">
        <ele>285</ele>
        <time>2012-11-13T13:01:24Z</time>
      </trkpt>
      <trkpt lat="44.44611" lon="4.1226">
        <ele>286</ele>
        <time>2012-11-13T13:01:35Z</time>
      </trkpt>
      <trkpt lat="44.44615" lon="4.12249">
        <ele>286.5</ele>
        <time>2012-11-13T13:01:44Z</time>
      </trkpt>
      <trkpt lat="44.4462" lon="4.12237">
        <ele>285</ele>
        <time>2012-11-13T13:01:51Z</time>
      </trkpt>
      <trkpt lat="44.44624" lon="4.12226">
        <ele>285</ele>
        <time>2012-11-13T13:02:01Z</time>
      </trkpt>
      <trkpt lat="44.44627" lon="4.12213">
        <ele>285</ele>
        <time>2012-11-13T13:02:11Z</time>
      </trkpt>
      <trkpt lat="44.44627" lon="4.12199">
        <ele>284.75</ele>
        <time>2012-11-13T13:02:23Z</time>
      </trkpt>
      <trkpt lat="44.44627" lon="4.12187">
        <ele>281.5</ele>
        <time>2012-11-13T13:02:36Z</time>
      </trkpt>
      <trkpt lat="44.44627" lon="4.12174">
        <ele>281.75</ele>
        <time>2012-11-13T13:02:58Z</time>
      </trkpt>
      <trkpt lat="44.44632" lon="4.12163">
        <ele>275</ele>
        <time>2012-11-13T13:04:01Z</time>
      </trkpt>
      <trkpt lat="44.4464" lon="4.12156">
        <ele>273</ele>
        <time>2012-11-13T13:04:31Z</time>
      </trkpt>
      <trkpt lat="44.44643" lon="4.12144">
        <ele>272</ele>
        <time>2012-11-13T13:04:57Z</time>
      </trkpt>
      <trkpt lat="44.44634" lon="4.12133">
        <ele>271.5</ele>
        <time>2012-11-13T13:05:41Z</time>
      </trkpt>
      <trkpt lat="44.44626" lon="4.12126">
        <ele>271.25</ele>
        <time>2012-11-13T13:05:46Z</time>
      </trkpt>
      <trkpt lat="44.44619" lon="4.12116">
        <ele>273</ele>
        <time>2012-11-13T13:06:02Z</time>
      </trkpt>
      <trkpt lat="44.44615" lon="4.12104">
        <ele>274</ele>
        <time>2012-11-13T13:06:12Z</time>
      </trkpt>
      <trkpt lat="44.44624" lon="4.12104">
        <ele>277.75</ele>
        <time>2012-11-13T13:06:45Z</time>
      </trkpt>
      <trkpt lat="44.44623" lon="4.12091">
        <ele>277.25</ele>
        <time>2012-11-13T13:06:56Z</time>
      </trkpt>
      <trkpt lat="44.44622" lon="4.12077">
        <ele>284</ele>
        <time>2012-11-13T13:07:15Z</time>
      </trkpt>
      <trkpt lat="44.44622" lon="4.12064">
        <ele>284</ele>
        <time>2012-11-13T13:07:31Z</time>
      </trkpt>
      <trkpt lat="44.44619" lon="4.12052">
        <ele>285.25</ele>
        <time>2012-11-13T13:07:41Z</time>
      </trkpt>
      <trkpt lat="44.44617" lon="4.12039">
        <ele>285</ele>
        <time>2012-11-13T13:07:54Z</time>
      </trkpt>
      <trkpt lat="44.44624" lon="4.1203">
        <ele>292.5</ele>
        <time>2012-11-13T13:09:47Z</time>
      </trkpt>
      <trkpt lat="44.44633" lon="4.12027">
        <ele>294</ele>
        <time>2012-11-13T13:09:57Z</time>
      </trkpt>
      <trkpt lat="44.44642" lon="4.12024">
        <ele>295.5</ele>
        <time>2012-11-13T13:10:05Z</time>
      </trkpt>
      <trkpt lat="44.4465" lon="4.12016">
        <ele>297</ele>
        <time>2012-11-13T13:10:16Z</time>
      </trkpt>
      <trkpt lat="44.44641" lon="4.12012">
        <ele>295</ele>
        <time>2012-11-13T13:10:26Z</time>
      </trkpt>
      <trkpt lat="44.44633" lon="4.12018">
        <ele>295.25</ele>
        <time>2012-11-13T13:12:57Z</time>
      </trkpt>
      <trkpt lat="44.44625" lon="4.12012">
        <ele>297</ele>
        <time>2012-11-13T13:16:14Z</time>
      </trkpt>
      <trkpt lat="44.44616" lon="4.12011">
        <ele>297</ele>
        <time>2012-11-13T13:16:22Z</time>
      </trkpt>
      <trkpt lat="44.44606" lon="4.12014">
        <ele>298</ele>
        <time>2012-11-13T13:16:32Z</time>
      </trkpt>
      <trkpt lat="44.44597" lon="4.12016">
        <ele>298</ele>
        <time>2012-11-13T13:16:41Z</time>
      </trkpt>
      <trkpt lat="44.44588" lon="4.12018">
        <ele>298</ele>
        <time>2012-11-13T13:16:51Z</time>
      </trkpt>
      <trkpt lat="44.44579" lon="4.1202">
        <ele>298</ele>
        <time>2012-11-13T13:16:59Z</time>
      </trkpt>
      <trkpt lat="44.4457" lon="4.12022">
        <ele>298</ele>
        <time>2012-11-13T13:17:08Z</time>
      </trkpt>
      <trkpt lat="44.44563" lon="4.12032">
        <ele>298.25</ele>
        <time>2012-11-13T13:17:17Z</time>
      </trkpt>
      <trkpt lat="44.44554" lon="4.12037">
        <ele>299</ele>
        <time>2012-11-13T13:17:26Z</time>
      </trkpt>
      <trkpt lat="44.44545" lon="4.12041">
        <ele>300</ele>
        <time>2012-11-13T13:17:34Z</time>
      </trkpt>
      <trkpt lat="44.44536" lon="4.12044">
        <ele>300.5</ele>
        <time>2012-11-13T13:17:44Z</time>
      </trkpt>
      <trkpt lat="44.44526" lon="4.12048">
        <ele>300.75</ele>
        <time>2012-11-13T13:17:52Z</time>
      </trkpt>
      <trkpt lat="44.44517" lon="4.12052">
        <ele>301</ele>
        <time>2012-11-13T13:18:04Z</time>
      </trkpt>
      <trkpt lat="44.44507" lon="4.12054">
        <ele>301</ele>
        <time>2012-11-13T13:18:13Z</time>
      </trkpt>
      <trkpt lat="44.44498" lon="4.12056">
        <ele>300.25</ele>
        <time>2012-11-13T13:18:23Z</time>
      </trkpt>
      <trkpt lat="44.44488" lon="4.12053">
        <ele>301</ele>
        <time>2012-11-13T13:18:32Z</time>
      </trkpt>
      <trkpt lat="44.44481" lon="4.12045">
        <ele>301</ele>
        <time>2012-11-13T13:18:45Z</time>
      </trkpt>
      <trkpt lat="44.44473" lon="4.12036">
        <ele>300</ele>
        <time>2012-11-13T13:18:57Z</time>
      </trkpt>
      <trkpt lat="44.44466" lon="4.12029">
        <ele>300</ele>
        <time>2012-11-13T13:19:03Z</time>
      </trkpt>
      <trkpt lat="44.44458" lon="4.1202">
        <ele>299</ele>
        <time>2012-11-13T13:19:11Z</time>
      </trkpt>
      <trkpt lat="44.44449" lon="4.12014">
        <ele>299.25</ele>
        <time>2012-11-13T13:19:20Z</time>
      </trkpt>
      <trkpt lat="44.44441" lon="4.12006">
        <ele>299</ele>
        <time>2012-11-13T13:19:29Z</time>
      </trkpt>
      <trkpt lat="44.44436" lon="4.11995">
        <ele>299</ele>
        <time>2012-11-13T13:19:39Z</time>
      </trkpt>
      <trkpt lat="44.44434" lon="4.11982">
        <ele>299</ele>
        <time>2012-11-13T13:19:49Z</time>
      </trkpt>
      <trkpt lat="44.44435" lon="4.11969">
        <ele>298.75</ele>
        <time>2012-11-13T13:19:58Z</time>
      </trkpt>
      <trkpt lat="44.44435" lon="4.11952">
        <ele>298.75</ele>
        <time>2012-11-13T13:20:39Z</time>
      </trkpt>
      <trkpt lat="44.44436" lon="4.11937">
        <ele>298.5</ele>
        <time>2012-11-13T13:20:40Z</time>
      </trkpt>
      <trkpt lat="44.44436" lon="4.11921">
        <ele>298.25</ele>
        <time>2012-11-13T13:20:41Z</time>
      </trkpt>
      <trkpt lat="44.44436" lon="4.11905">
        <ele>298</ele>
        <time>2012-11-13T13:20:42Z</time>
      </trkpt>
      <trkpt lat="44.44436" lon="4.11891">
        <ele>298</ele>
        <time>2012-11-13T13:20:50Z</time>
      </trkpt>
      <trkpt lat="44.44435" lon="4.11878">
        <ele>297.75</ele>
        <time>2012-11-13T13:20:59Z</time>
      </trkpt>
      <trkpt lat="44.44434" lon="4.11864">
        <ele>297</ele>
        <time>2012-11-13T13:21:09Z</time>
      </trkpt>
      <trkpt lat="44.44435" lon="4.11851">
        <ele>297</ele>
        <time>2012-11-13T13:21:18Z</time>
      </trkpt>
      <trkpt lat="44.44436" lon="4.11838">
        <ele>296.25</ele>
        <time>2012-11-13T13:21:24Z</time>
      </trkpt>
      <trkpt lat="44.44438" lon="4.11824">
        <ele>296.75</ele>
        <time>2012-11-13T13:21:33Z</time>
      </trkpt>
      <trkpt lat="44.44439" lon="4.11811">
        <ele>296.5</ele>
        <time>2012-11-13T13:21:40Z</time>
      </trkpt>
      <trkpt lat="44.44442" lon="4.11798">
        <ele>296.25</ele>
        <time>2012-11-13T13:21:51Z</time>
      </trkpt>
      <trkpt lat="44.44442" lon="4.11785">
        <ele>296</ele>
        <time>2012-11-13T13:21:58Z</time>
      </trkpt>
      <trkpt lat="44.44444" lon="4.1177">
        <ele>295</ele>
        <time>2012-11-13T13:22:07Z</time>
      </trkpt>
      <trkpt lat="44.44447" lon="4.11757">
        <ele>296</ele>
        <time>2012-11-13T13:22:16Z</time>
      </trkpt>
      <trkpt lat="44.4445" lon="4.11746">
        <ele>296.75</ele>
        <time>2012-11-13T13:22:25Z</time>
      </trkpt>
      <trkpt lat="44.44454" lon="4.11733">
        <ele>297</ele>
        <time>2012-11-13T13:22:34Z</time>
      </trkpt>
      <trkpt lat="44.44455" lon="4.11721">
        <ele>298.5</ele>
        <time>2012-11-13T13:22:44Z</time>
      </trkpt>
      <trkpt lat="44.44458" lon="4.11707">
        <ele>299.75</ele>
        <time>2012-11-13T13:22:52Z</time>
      </trkpt>
      <trkpt lat="44.44459" lon="4.11693">
        <ele>300.5</ele>
        <time>2012-11-13T13:23:00Z</time>
      </trkpt>
      <trkpt lat="44.44464" lon="4.11682">
        <ele>298.5</ele>
        <time>2012-11-13T13:23:07Z</time>
      </trkpt>
      <trkpt lat="44.44469" lon="4.1167">
        <ele>296.5</ele>
        <time>2012-11-13T13:23:15Z</time>
      </trkpt>
      <trkpt lat="44.44471" lon="4.11658">
        <ele>296</ele>
        <time>2012-11-13T13:23:24Z</time>
      </trkpt>
      <trkpt lat="44.44474" lon="4.11645">
        <ele>296.75</ele>
        <time>2012-11-13T13:23:31Z</time>
      </trkpt>
      <trkpt lat="44.44477" lon="4.11632">
        <ele>296</ele>
        <time>2012-11-13T13:23:40Z</time>
      </trkpt>
      <trkpt lat="44.44481" lon="4.1162">
        <ele>296</ele>
        <time>2012-11-13T13:23:48Z</time>
      </trkpt>
      <trkpt lat="44.44486" lon="4.11608">
        <ele>296.25</ele>
        <time>2012-11-13T13:23:57Z</time>
      </trkpt>
      <trkpt lat="44.44495" lon="4.11601">
        <ele>297</ele>
        <time>2012-11-13T13:24:06Z</time>
      </trkpt>
      <trkpt lat="44.44504" lon="4.11596">
        <ele>297.25</ele>
        <time>2012-11-13T13:24:18Z</time>
      </trkpt>
      <trkpt lat="44.44512" lon="4.1159">
        <ele>298</ele>
        <time>2012-11-13T13:24:26Z</time>
      </trkpt>
      <trkpt lat="44.4452" lon="4.11584">
        <ele>299</ele>
        <time>2012-11-13T13:24:36Z</time>
      </trkpt>
      <trkpt lat="44.44529" lon="4.11577">
        <ele>300.25</ele>
        <time>2012-11-13T13:24:47Z</time>
      </trkpt>
      <trkpt lat="44.44538" lon="4.11573">
        <ele>301</ele>
        <time>2012-11-13T13:24:59Z</time>
      </trkpt>
      <trkpt lat="44.44547" lon="4.11572">
        <ele>301</ele>
        <time>2012-11-13T13:25:09Z</time>
      </trkpt>
      <trkpt lat="44.44556" lon="4.1157">
        <ele>302</ele>
        <time>2012-11-13T13:25:18Z</time>
      </trkpt>
      <trkpt lat="44.44565" lon="4.11568">
        <ele>303</ele>
        <time>2012-11-13T13:25:31Z</time>
      </trkpt>
      <trkpt lat="44.44576" lon="4.11566">
        <ele>312</ele>
        <time>2012-11-13T13:29:30Z</time>
      </trkpt>
      <trkpt lat="44.44584" lon="4.11561">
        <ele>313</ele>
        <time>2012-11-13T13:29:42Z</time>
      </trkpt>
      <trkpt lat="44.44591" lon="4.11553">
        <ele>312</ele>
        <time>2012-11-13T13:29:52Z</time>
      </trkpt>
      <trkpt lat="44.44601" lon="4.11551">
        <ele>310.5</ele>
        <time>2012-11-13T13:30:04Z</time>
      </trkpt>
      <trkpt lat="44.4461" lon="4.11556">
        <ele>311.5</ele>
        <time>2012-11-13T13:30:17Z</time>
      </trkpt>
      <trkpt lat="44.44616" lon="4.11566">
        <ele>312</ele>
        <time>2012-11-13T13:30:25Z</time>
      </trkpt>
      <trkpt lat="44.44625" lon="4.11566">
        <ele>312.75</ele>
        <time>2012-11-13T13:30:33Z</time>
      </trkpt>
      <trkpt lat="44.44632" lon="4.11556">
        <ele>312.75</ele>
        <time>2012-11-13T13:30:40Z</time>
      </trkpt>
      <trkpt lat="44.44638" lon="4.11547">
        <ele>311.5</ele>
        <time>2012-11-13T13:30:50Z</time>
      </trkpt>
      <trkpt lat="44.44648" lon="4.11543">
        <ele>310.5</ele>
        <time>2012-11-13T13:31:00Z</time>
      </trkpt>
      <trkpt lat="44.44657" lon="4.11544">
        <ele>310</ele>
        <time>2012-11-13T13:31:09Z</time>
      </trkpt>
      <trkpt lat="44.44667" lon="4.11546">
        <ele>311.5</ele>
        <time>2012-11-13T13:31:20Z</time>
      </trkpt>
      <trkpt lat="44.44676" lon="4.11544">
        <ele>314</ele>
        <time>2012-11-13T13:31:33Z</time>
      </trkpt>
      <trkpt lat="44.44685" lon="4.11536">
        <ele>313.25</ele>
        <time>2012-11-13T13:31:41Z</time>
      </trkpt>
      <trkpt lat="44.4469" lon="4.11525">
        <ele>312</ele>
        <time>2012-11-13T13:31:48Z</time>
      </trkpt>
      <trkpt lat="44.44697" lon="4.11517">
        <ele>311</ele>
        <time>2012-11-13T13:31:58Z</time>
      </trkpt>
      <trkpt lat="44.44703" lon="4.11506">
        <ele>310</ele>
        <time>2012-11-13T13:32:07Z</time>
      </trkpt>
      <trkpt lat="44.44711" lon="4.11497">
        <ele>310</ele>
        <time>2012-11-13T13:32:16Z</time>
      </trkpt>
      <trkpt lat="44.44717" lon="4.11487">
        <ele>310</ele>
        <time>2012-11-13T13:32:24Z</time>
      </trkpt>
      <trkpt lat="44.44726" lon="4.11483">
        <ele>310.5</ele>
        <time>2012-11-13T13:32:35Z</time>
      </trkpt>
      <trkpt lat="44.44734" lon="4.11477">
        <ele>312</ele>
        <time>2012-11-13T13:32:44Z</time>
      </trkpt>
      <trkpt lat="44.44739" lon="4.11466">
        <ele>312</ele>
        <time>2012-11-13T13:32:52Z</time>
      </trkpt>
      <trkpt lat="44.44745" lon="4.11456">
        <ele>312</ele>
        <time>2012-11-13T13:33:00Z</time>
      </trkpt>
      <trkpt lat="44.4475" lon="4.11446">
        <ele>312</ele>
        <time>2012-11-13T13:33:06Z</time>
      </trkpt>
      <trkpt lat="44.44753" lon="4.11432">
        <ele>313</ele>
        <time>2012-11-13T13:33:16Z</time>
      </trkpt>
      <trkpt lat="44.44755" lon="4.11419">
        <ele>313</ele>
        <time>2012-11-13T13:33:24Z</time>
      </trkpt>
      <trkpt lat="44.44762" lon="4.1141">
        <ele>313</ele>
        <time>2012-11-13T13:33:33Z</time>
      </trkpt>
      <trkpt lat="44.44769" lon="4.114">
        <ele>312.5</ele>
        <time>2012-11-13T13:33:44Z</time>
      </trkpt>
      <trkpt lat="44.44776" lon="4.11392">
        <ele>313</ele>
        <time>2012-11-13T13:33:56Z</time>
      </trkpt>
      <trkpt lat="44.44783" lon="4.11384">
        <ele>314.75</ele>
        <time>2012-11-13T13:34:07Z</time>
      </trkpt>
      <trkpt lat="44.44789" lon="4.11374">
        <ele>316</ele>
        <time>2012-11-13T13:34:13Z</time>
      </trkpt>
      <trkpt lat="44.44794" lon="4.11362">
        <ele>317.5</ele>
        <time>2012-11-13T13:34:21Z</time>
      </trkpt>
      <trkpt lat="44.44794" lon="4.11349">
        <ele>316.25</ele>
        <time>2012-11-13T13:34:31Z</time>
      </trkpt>
      <trkpt lat="44.44793" lon="4.11336">
        <ele>315.25</ele>
        <time>2012-11-13T13:34:39Z</time>
      </trkpt>
      <trkpt lat="44.44792" lon="4.11322">
        <ele>314.5</ele>
        <time>2012-11-13T13:34:50Z</time>
      </trkpt>
      <trkpt lat="44.44789" lon="4.1131">
        <ele>314</ele>
        <time>2012-11-13T13:34:59Z</time>
      </trkpt>
      <trkpt lat="44.44786" lon="4.11298">
        <ele>314</ele>
        <time>2012-11-13T13:35:09Z</time>
      </trkpt>
      <trkpt lat="44.44785" lon="4.11285">
        <ele>314.25</ele>
        <time>2012-11-13T13:35:19Z</time>
      </trkpt>
      <trkpt lat="44.4479" lon="4.11297">
        <ele>313</ele>
        <time>2012-11-13T13:35:45Z</time>
      </trkpt>
      <trkpt lat="44.44799" lon="4.11299">
        <ele>315</ele>
        <time>2012-11-13T13:35:56Z</time>
      </trkpt>
      <trkpt lat="44.44814" lon="4.11285">
        <ele>317</ele>
        <time>2012-11-13T13:36:43Z</time>
      </trkpt>
      <trkpt lat="44.44823" lon="4.11277">
        <ele>318</ele>
        <time>2012-11-13T13:36:44Z</time>
      </trkpt>
      <trkpt lat="44.44832" lon="4.11269">
        <ele>319</ele>
        <time>2012-11-13T13:36:45Z</time>
      </trkpt>
      <trkpt lat="44.4484" lon="4.11261">
        <ele>320</ele>
        <time>2012-11-13T13:36:46Z</time>
      </trkpt>
      <trkpt lat="44.44849" lon="4.11258">
        <ele>322</ele>
        <time>2012-11-13T13:36:58Z</time>
      </trkpt>
      <trkpt lat="44.44859" lon="4.11255">
        <ele>322</ele>
        <time>2012-11-13T13:37:09Z</time>
      </trkpt>
      <trkpt lat="44.44865" lon="4.11246">
        <ele>321</ele>
        <time>2012-11-13T13:37:16Z</time>
      </trkpt>
      <trkpt lat="44.44871" lon="4.11234">
        <ele>322.5</ele>
        <time>2012-11-13T13:37:27Z</time>
      </trkpt>
      <trkpt lat="44.44878" lon="4.11225">
        <ele>323.75</ele>
        <time>2012-11-13T13:37:35Z</time>
      </trkpt>
      <trkpt lat="44.44883" lon="4.11213">
        <ele>325</ele>
        <time>2012-11-13T13:37:47Z</time>
      </trkpt>
      <trkpt lat="44.44889" lon="4.11203">
        <ele>326</ele>
        <time>2012-11-13T13:37:59Z</time>
      </trkpt>
      <trkpt lat="44.44882" lon="4.1121">
        <ele>327</ele>
        <time>2012-11-13T13:39:02Z</time>
      </trkpt>
      <trkpt lat="44.4488" lon="4.11223">
        <ele>327</ele>
        <time>2012-11-13T13:39:14Z</time>
      </trkpt>
      <trkpt lat="44.44878" lon="4.11236">
        <ele>328</ele>
        <time>2012-11-13T13:39:25Z</time>
      </trkpt>
      <trkpt lat="44.44872" lon="4.11248">
        <ele>323.25</ele>
        <time>2012-11-13T13:40:00Z</time>
      </trkpt>
      <trkpt lat="44.44879" lon="4.11257">
        <ele>320</ele>
        <time>2012-11-13T13:40:16Z</time>
      </trkpt>
      <trkpt lat="44.44886" lon="4.11248">
        <ele>321.75</ele>
        <time>2012-11-13T13:40:25Z</time>
      </trkpt>
      <trkpt lat="44.44894" lon="4.1124">
        <ele>323</ele>
        <time>2012-11-13T13:40:33Z</time>
      </trkpt>
      <trkpt lat="44.449" lon="4.1123">
        <ele>324.5</ele>
        <time>2012-11-13T13:40:43Z</time>
      </trkpt>
      <trkpt lat="44.44908" lon="4.11221">
        <ele>326.25</ele>
        <time>2012-11-13T13:40:51Z</time>
      </trkpt>
      <trkpt lat="44.44915" lon="4.11212">
        <ele>330</ele>
        <time>2012-11-13T13:41:03Z</time>
      </trkpt>
      <trkpt lat="44.44921" lon="4.11201">
        <ele>331</ele>
        <time>2012-11-13T13:41:13Z</time>
      </trkpt>
      <trkpt lat="44.44925" lon="4.11188">
        <ele>332</ele>
        <time>2012-11-13T13:41:22Z</time>
      </trkpt>
      <trkpt lat="44.44931" lon="4.11176">
        <ele>332.25</ele>
        <time>2012-11-13T13:41:33Z</time>
      </trkpt>
      <trkpt lat="44.44934" lon="4.11164">
        <ele>332.25</ele>
        <time>2012-11-13T13:41:41Z</time>
      </trkpt>
      <trkpt lat="44.44937" lon="4.11151">
        <ele>335</ele>
        <time>2012-11-13T13:41:52Z</time>
      </trkpt>
      <trkpt lat="44.44941" lon="4.11139">
        <ele>338</ele>
        <time>2012-11-13T13:42:02Z</time>
      </trkpt>
      <trkpt lat="44.44943" lon="4.11126">
        <ele>341</ele>
        <time>2012-11-13T13:42:14Z</time>
      </trkpt>
      <trkpt lat="44.44942" lon="4.11113">
        <ele>341</ele>
        <time>2012-11-13T13:42:21Z</time>
      </trkpt>
      <trkpt lat="44.44941" lon="4.11099">
        <ele>342.25</ele>
        <time>2012-11-13T13:42:29Z</time>
      </trkpt>
      <trkpt lat="44.44943" lon="4.11086">
        <ele>342</ele>
        <time>2012-11-13T13:42:39Z</time>
      </trkpt>
      <trkpt lat="44.44946" lon="4.11073">
        <ele>342</ele>
        <time>2012-11-13T13:42:51Z</time>
      </trkpt>
      <trkpt lat="44.44947" lon="4.11059">
        <ele>344</ele>
        <time>2012-11-13T13:43:03Z</time>
      </trkpt>
      <trkpt lat="44.44947" lon="4.11046">
        <ele>344</ele>
        <time>2012-11-13T13:43:11Z</time>
      </trkpt>
      <trkpt lat="44.44947" lon="4.11031">
        <ele>344</ele>
        <time>2012-11-13T13:43:27Z</time>
      </trkpt>
      <trkpt lat="44.4495" lon="4.11044">
        <ele>348</ele>
        <time>2012-11-13T13:44:00Z</time>
      </trkpt>
      <trkpt lat="44.44954" lon="4.11056">
        <ele>349</ele>
        <time>2012-11-13T13:44:11Z</time>
      </trkpt>
      <trkpt lat="44.44959" lon="4.11067">
        <ele>349.5</ele>
        <time>2012-11-13T13:44:22Z</time>
      </trkpt>
      <trkpt lat="44.44963" lon="4.1108">
        <ele>350</ele>
        <time>2012-11-13T13:44:32Z</time>
      </trkpt>
      <trkpt lat="44.4496" lon="4.11093">
        <ele>352</ele>
        <time>2012-11-13T13:44:44Z</time>
      </trkpt>
      <trkpt lat="44.44959" lon="4.11107">
        <ele>352</ele>
        <time>2012-11-13T13:44:55Z</time>
      </trkpt>
      <trkpt lat="44.44968" lon="4.11104">
        <ele>352</ele>
        <time>2012-11-13T13:45:05Z</time>
      </trkpt>
      <trkpt lat="44.44973" lon="4.11094">
        <ele>353.5</ele>
        <time>2012-11-13T13:45:16Z</time>
      </trkpt>
      <trkpt lat="44.44976" lon="4.11081">
        <ele>355.5</ele>
        <time>2012-11-13T13:45:40Z</time>
      </trkpt>
      <trkpt lat="44.44976" lon="4.11068">
        <ele>355.25</ele>
        <time>2012-11-13T13:45:50Z</time>
      </trkpt>
      <trkpt lat="44.44977" lon="4.11055">
        <ele>354</ele>
        <time>2012-11-13T13:45:57Z</time>
      </trkpt>
      <trkpt lat="44.44978" lon="4.11042">
        <ele>354.75</ele>
        <time>2012-11-13T13:46:07Z</time>
      </trkpt>
      <trkpt lat="44.44976" lon="4.11028">
        <ele>355.75</ele>
        <time>2012-11-13T13:46:16Z</time>
      </trkpt>
      <trkpt lat="44.44972" lon="4.11016">
        <ele>356.5</ele>
        <time>2012-11-13T13:46:27Z</time>
      </trkpt>
      <trkpt lat="44.44971" lon="4.11002">
        <ele>356</ele>
        <time>2012-11-13T13:46:35Z</time>
      </trkpt>
      <trkpt lat="44.44971" lon="4.10989">
        <ele>357</ele>
        <time>2012-11-13T13:46:43Z</time>
      </trkpt>
      <trkpt lat="44.44969" lon="4.10977">
        <ele>357</ele>
        <time>2012-11-13T13:46:50Z</time>
      </trkpt>
      <trkpt lat="44.44968" lon="4.10963">
        <ele>356.75</ele>
        <time>2012-11-13T13:47:00Z</time>
      </trkpt>
      <trkpt lat="44.44967" lon="4.10951">
        <ele>357.25</ele>
        <time>2012-11-13T13:47:39Z</time>
      </trkpt>
      <trkpt lat="44.44966" lon="4.10926">
        <ele>358.5</ele>
        <time>2012-11-13T13:47:41Z</time>
      </trkpt>
      <trkpt lat="44.44966" lon="4.10913">
        <ele>359</ele>
        <time>2012-11-13T13:47:44Z</time>
      </trkpt>
      <trkpt lat="44.44965" lon="4.109">
        <ele>358.5</ele>
        <time>2012-11-13T13:47:54Z</time>
      </trkpt>
      <trkpt lat="44.44963" lon="4.10887">
        <ele>360</ele>
        <time>2012-11-13T13:48:04Z</time>
      </trkpt>
      <trkpt lat="44.44963" lon="4.10875">
        <ele>361.5</ele>
        <time>2012-11-13T13:48:14Z</time>
      </trkpt>
      <trkpt lat="44.44963" lon="4.10862">
        <ele>361.25</ele>
        <time>2012-11-13T13:48:23Z</time>
      </trkpt>
      <trkpt lat="44.44967" lon="4.1085">
        <ele>362</ele>
        <time>2012-11-13T13:48:35Z</time>
      </trkpt>
      <trkpt lat="44.44974" lon="4.10841">
        <ele>364.25</ele>
        <time>2012-11-13T13:48:48Z</time>
      </trkpt>
      <trkpt lat="44.44983" lon="4.1084">
        <ele>366</ele>
        <time>2012-11-13T13:48:59Z</time>
      </trkpt>
      <trkpt lat="44.44992" lon="4.10846">
        <ele>367.25</ele>
        <time>2012-11-13T13:49:12Z</time>
      </trkpt>
      <trkpt lat="44.45001" lon="4.10844">
        <ele>367</ele>
        <time>2012-11-13T13:49:23Z</time>
      </trkpt>
      <trkpt lat="44.4501" lon="4.10845">
        <ele>367.5</ele>
        <time>2012-11-13T13:49:32Z</time>
      </trkpt>
      <trkpt lat="44.45019" lon="4.1085">
        <ele>368</ele>
        <time>2012-11-13T13:49:45Z</time>
      </trkpt>
      <trkpt lat="44.45028" lon="4.10857">
        <ele>369</ele>
        <time>2012-11-13T13:49:55Z</time>
      </trkpt>
      <trkpt lat="44.45036" lon="4.10863">
        <ele>369.5</ele>
        <time>2012-11-13T13:50:04Z</time>
      </trkpt>
      <trkpt lat="44.45035" lon="4.10877">
        <ele>371</ele>
        <time>2012-11-13T13:50:51Z</time>
      </trkpt>
      <trkpt lat="44.45032" lon="4.10889">
        <ele>371</ele>
        <time>2012-11-13T13:51:00Z</time>
      </trkpt>
      <trkpt lat="44.45032" lon="4.10903">
        <ele>372</ele>
        <time>2012-11-13T13:51:09Z</time>
      </trkpt>
      <trkpt lat="44.45035" lon="4.10917">
        <ele>373</ele>
        <time>2012-11-13T13:51:18Z</time>
      </trkpt>
      <trkpt lat="44.45032" lon="4.1093">
        <ele>375.25</ele>
        <time>2012-11-13T13:51:27Z</time>
      </trkpt>
      <trkpt lat="44.45026" lon="4.10941">
        <ele>378.25</ele>
        <time>2012-11-13T13:51:37Z</time>
      </trkpt>
      <trkpt lat="44.45026" lon="4.10954">
        <ele>379</ele>
        <time>2012-11-13T13:51:47Z</time>
      </trkpt>
      <trkpt lat="44.45025" lon="4.10968">
        <ele>380</ele>
        <time>2012-11-13T13:51:58Z</time>
      </trkpt>
      <trkpt lat="44.45024" lon="4.10981">
        <ele>381</ele>
        <time>2012-11-13T13:52:07Z</time>
      </trkpt>
      <trkpt lat="44.45026" lon="4.10994">
        <ele>381</ele>
        <time>2012-11-13T13:52:16Z</time>
      </trkpt>
      <trkpt lat="44.45035" lon="4.10998">
        <ele>379</ele>
        <time>2012-11-13T13:53:03Z</time>
      </trkpt>
      <trkpt lat="44.45038" lon="4.10985">
        <ele>381</ele>
        <time>2012-11-13T13:56:13Z</time>
      </trkpt>
      <trkpt lat="44.4504" lon="4.10973">
        <ele>381.25</ele>
        <time>2012-11-13T13:56:21Z</time>
      </trkpt>
      <trkpt lat="44.45045" lon="4.10962">
        <ele>382</ele>
        <time>2012-11-13T13:56:30Z</time>
      </trkpt>
      <trkpt lat="44.45051" lon="4.10952">
        <ele>383</ele>
        <time>2012-11-13T13:56:39Z</time>
      </trkpt>
      <trkpt lat="44.45059" lon="4.10946">
        <ele>383.25</ele>
        <time>2012-11-13T13:56:48Z</time>
      </trkpt>
      <trkpt lat="44.45068" lon="4.10942">
        <ele>383</ele>
        <time>2012-11-13T13:56:56Z</time>
      </trkpt>
      <trkpt lat="44.45077" lon="4.10939">
        <ele>382</ele>
        <time>2012-11-13T13:57:04Z</time>
      </trkpt>
      <trkpt lat="44.45087" lon="4.10942">
        <ele>383</ele>
        <time>2012-11-13T13:57:12Z</time>
      </trkpt>
      <trkpt lat="44.45096" lon="4.10941">
        <ele>383.75</ele>
        <time>2012-11-13T13:57:19Z</time>
      </trkpt>
      <trkpt lat="44.45106" lon="4.10942">
        <ele>385</ele>
        <time>2012-11-13T13:57:28Z</time>
      </trkpt>
      <trkpt lat="44.45114" lon="4.10935">
        <ele>386</ele>
        <time>2012-11-13T13:57:36Z</time>
      </trkpt>
      <trkpt lat="44.45122" lon="4.10927">
        <ele>387</ele>
        <time>2012-11-13T13:57:45Z</time>
      </trkpt>
      <trkpt lat="44.45131" lon="4.10924">
        <ele>388</ele>
        <time>2012-11-13T13:57:54Z</time>
      </trkpt>
      <trkpt lat="44.4514" lon="4.10921">
        <ele>383</ele>
        <time>2012-11-13T13:58:07Z</time>
      </trkpt>
      <trkpt lat="44.4513" lon="4.10926">
        <ele>385.5</ele>
        <time>2012-11-13T13:58:51Z</time>
      </trkpt>
      <trkpt lat="44.45121" lon="4.10928">
        <ele>387.5</ele>
        <time>2012-11-13T13:58:59Z</time>
      </trkpt>
      <trkpt lat="44.45114" lon="4.10937">
        <ele>389</ele>
        <time>2012-11-13T13:59:07Z</time>
      </trkpt>
      <trkpt lat="44.45107" lon="4.10946">
        <ele>390</ele>
        <time>2012-11-13T13:59:15Z</time>
      </trkpt>
      <trkpt lat="44.45098" lon="4.10953">
        <ele>391</ele>
        <time>2012-11-13T13:59:24Z</time>
      </trkpt>
      <trkpt lat="44.45089" lon="4.10958">
        <ele>392.5</ele>
        <time>2012-11-13T13:59:32Z</time>
      </trkpt>
      <trkpt lat="44.45081" lon="4.10965">
        <ele>393.75</ele>
        <time>2012-11-13T13:59:43Z</time>
      </trkpt>
      <trkpt lat="44.45073" lon="4.10971">
        <ele>394.75</ele>
        <time>2012-11-13T13:59:49Z</time>
      </trkpt>
      <trkpt lat="44.45066" lon="4.1098">
        <ele>397</ele>
        <time>2012-11-13T14:00:00Z</time>
      </trkpt>
      <trkpt lat="44.45062" lon="4.10993">
        <ele>396</ele>
        <time>2012-11-13T14:00:07Z</time>
      </trkpt>
      <trkpt lat="44.45065" lon="4.11006">
        <ele>395.75</ele>
        <time>2012-11-13T14:00:15Z</time>
      </trkpt>
      <trkpt lat="44.45071" lon="4.11016">
        <ele>395.75</ele>
        <time>2012-11-13T14:00:21Z</time>
      </trkpt>
      <trkpt lat="44.45078" lon="4.11025">
        <ele>396</ele>
        <time>2012-11-13T14:00:30Z</time>
      </trkpt>
      <trkpt lat="44.45087" lon="4.11033">
        <ele>396.75</ele>
        <time>2012-11-13T14:00:40Z</time>
      </trkpt>
      <trkpt lat="44.45096" lon="4.11039">
        <ele>397.75</ele>
        <time>2012-11-13T14:00:48Z</time>
      </trkpt>
      <trkpt lat="44.45104" lon="4.11034">
        <ele>398.5</ele>
        <time>2012-11-13T14:00:59Z</time>
      </trkpt>
      <trkpt lat="44.45109" lon="4.1102">
        <ele>399.25</ele>
        <time>2012-11-13T14:01:40Z</time>
      </trkpt>
      <trkpt lat="44.45113" lon="4.11009">
        <ele>399.5</ele>
        <time>2012-11-13T14:01:41Z</time>
      </trkpt>
      <trkpt lat="44.45118" lon="4.10997">
        <ele>399.75</ele>
        <time>2012-11-13T14:01:42Z</time>
      </trkpt>
      <trkpt lat="44.45122" lon="4.10986">
        <ele>400</ele>
        <time>2012-11-13T14:01:43Z</time>
      </trkpt>
      <trkpt lat="44.45131" lon="4.10981">
        <ele>400</ele>
        <time>2012-11-13T14:01:51Z</time>
      </trkpt>
      <trkpt lat="44.45141" lon="4.10981">
        <ele>401</ele>
        <time>2012-11-13T14:02:01Z</time>
      </trkpt>
      <trkpt lat="44.4515" lon="4.10978">
        <ele>402.75</ele>
        <time>2012-11-13T14:02:09Z</time>
      </trkpt>
      <trkpt lat="44.45159" lon="4.10975">
        <ele>403</ele>
        <time>2012-11-13T14:02:19Z</time>
      </trkpt>
      <trkpt lat="44.45168" lon="4.10971">
        <ele>403</ele>
        <time>2012-11-13T14:02:27Z</time>
      </trkpt>
      <trkpt lat="44.45177" lon="4.10968">
        <ele>403.75</ele>
        <time>2012-11-13T14:02:36Z</time>
      </trkpt>
      <trkpt lat="44.45187" lon="4.10967">
        <ele>404</ele>
        <time>2012-11-13T14:02:45Z</time>
      </trkpt>
      <trkpt lat="44.45196" lon="4.10965">
        <ele>404.25</ele>
        <time>2012-11-13T14:02:54Z</time>
      </trkpt>
      <trkpt lat="44.45206" lon="4.10962">
        <ele>404.75</ele>
        <time>2012-11-13T14:03:02Z</time>
      </trkpt>
      <trkpt lat="44.45216" lon="4.10961">
        <ele>405.25</ele>
        <time>2012-11-13T14:03:12Z</time>
      </trkpt>
      <trkpt lat="44.45223" lon="4.10969">
        <ele>407.25</ele>
        <time>2012-11-13T14:03:22Z</time>
      </trkpt>
      <trkpt lat="44.45219" lon="4.10981">
        <ele>408</ele>
        <time>2012-11-13T14:03:33Z</time>
      </trkpt>
      <trkpt lat="44.45213" lon="4.10992">
        <ele>408.25</ele>
        <time>2012-11-13T14:03:42Z</time>
      </trkpt>
      <trkpt lat="44.45208" lon="4.11002">
        <ele>410</ele>
        <time>2012-11-13T14:03:52Z</time>
      </trkpt>
      <trkpt lat="44.45203" lon="4.11015">
        <ele>411.25</ele>
        <time>2012-11-13T14:04:05Z</time>
      </trkpt>
      <trkpt lat="44.45203" lon="4.11028">
        <ele>412</ele>
        <time>2012-11-13T14:04:14Z</time>
      </trkpt>
      <trkpt lat="44.45207" lon="4.1104">
        <ele>413</ele>
        <time>2012-11-13T14:04:22Z</time>
      </trkpt>
      <trkpt lat="44.45211" lon="4.11051">
        <ele>414.25</ele>
        <time>2012-11-13T14:04:31Z</time>
      </trkpt>
      <trkpt lat="44.45215" lon="4.11064">
        <ele>415</ele>
        <time>2012-11-13T14:04:41Z</time>
      </trkpt>
      <trkpt lat="44.45224" lon="4.11067">
        <ele>416.5</ele>
        <time>2012-11-13T14:04:53Z</time>
      </trkpt>
      <trkpt lat="44.45231" lon="4.11057">
        <ele>416.5</ele>
        <time>2012-11-13T14:05:06Z</time>
      </trkpt>
      <trkpt lat="44.45237" lon="4.11048">
        <ele>417</ele>
        <time>2012-11-13T14:05:17Z</time>
      </trkpt>
      <trkpt lat="44.45245" lon="4.11041">
        <ele>418.25</ele>
        <time>2012-11-13T14:05:27Z</time>
      </trkpt>
      <trkpt lat="44.45252" lon="4.11033">
        <ele>419.25</ele>
        <time>2012-11-13T14:05:37Z</time>
      </trkpt>
      <trkpt lat="44.45259" lon="4.11024">
        <ele>420</ele>
        <time>2012-11-13T14:05:44Z</time>
      </trkpt>
      <trkpt lat="44.45267" lon="4.1102">
        <ele>421</ele>
        <time>2012-11-13T14:05:56Z</time>
      </trkpt>
      <trkpt lat="44.45275" lon="4.11011">
        <ele>422.75</ele>
        <time>2012-11-13T14:06:05Z</time>
      </trkpt>
      <trkpt lat="44.45284" lon="4.11005">
        <ele>424</ele>
        <time>2012-11-13T14:06:17Z</time>
      </trkpt>
      <trkpt lat="44.45293" lon="4.11006">
        <ele>425</ele>
        <time>2012-11-13T14:06:25Z</time>
      </trkpt>
      <trkpt lat="44.45302" lon="4.11005">
        <ele>425</ele>
        <time>2012-11-13T14:06:36Z</time>
      </trkpt>
      <trkpt lat="44.45312" lon="4.11006">
        <ele>426.75</ele>
        <time>2012-11-13T14:06:46Z</time>
      </trkpt>
      <trkpt lat="44.45321" lon="4.11004">
        <ele>428.25</ele>
        <time>2012-11-13T14:06:58Z</time>
      </trkpt>
      <trkpt lat="44.4533" lon="4.10999">
        <ele>430</ele>
        <time>2012-11-13T14:07:42Z</time>
      </trkpt>
      <trkpt lat="44.45338" lon="4.10995">
        <ele>431</ele>
        <time>2012-11-13T14:08:25Z</time>
      </trkpt>
      <trkpt lat="44.45348" lon="4.10992">
        <ele>432.25</ele>
        <time>2012-11-13T14:08:37Z</time>
      </trkpt>
      <trkpt lat="44.45358" lon="4.10991">
        <ele>433</ele>
        <time>2012-11-13T14:08:49Z</time>
      </trkpt>
      <trkpt lat="44.45366" lon="4.10998">
        <ele>433.75</ele>
        <time>2012-11-13T14:08:57Z</time>
      </trkpt>
      <trkpt lat="44.45375" lon="4.10999">
        <ele>434</ele>
        <time>2012-11-13T14:09:07Z</time>
      </trkpt>
      <trkpt lat="44.45385" lon="4.11001">
        <ele>435.5</ele>
        <time>2012-11-13T14:09:21Z</time>
      </trkpt>
      <trkpt lat="44.45394" lon="4.11">
        <ele>436.75</ele>
        <time>2012-11-13T14:09:30Z</time>
      </trkpt>
      <trkpt lat="44.45404" lon="4.11">
        <ele>438.25</ele>
        <time>2012-11-13T14:09:43Z</time>
      </trkpt>
      <trkpt lat="44.45413" lon="4.11004">
        <ele>439</ele>
        <time>2012-11-13T14:09:49Z</time>
      </trkpt>
      <trkpt lat="44.45421" lon="4.10997">
        <ele>439</ele>
        <time>2012-11-13T14:10:02Z</time>
      </trkpt>
      <trkpt lat="44.4543" lon="4.10995">
        <ele>440</ele>
        <time>2012-11-13T14:10:12Z</time>
      </trkpt>
      <trkpt lat="44.45439" lon="4.10991">
        <ele>442.5</ele>
        <time>2012-11-13T14:10:20Z</time>
      </trkpt>
      <trkpt lat="44.45448" lon="4.10986">
        <ele>444</ele>
        <time>2012-11-13T14:10:32Z</time>
      </trkpt>
      <trkpt lat="44.45455" lon="4.10977">
        <ele>444</ele>
        <time>2012-11-13T14:10:46Z</time>
      </trkpt>
      <trkpt lat="44.45464" lon="4.10975">
        <ele>443</ele>
        <time>2012-11-13T14:10:53Z</time>
      </trkpt>
      <trkpt lat="44.45473" lon="4.10972">
        <ele>442.5</ele>
        <time>2012-11-13T14:11:09Z</time>
      </trkpt>
      <trkpt lat="44.45481" lon="4.10964">
        <ele>444</ele>
        <time>2012-11-13T14:11:23Z</time>
      </trkpt>
      <trkpt lat="44.45488" lon="4.10956">
        <ele>445</ele>
        <time>2012-11-13T14:11:39Z</time>
      </trkpt>
      <trkpt lat="44.45493" lon="4.10945">
        <ele>445</ele>
        <time>2012-11-13T14:11:49Z</time>
      </trkpt>
      <trkpt lat="44.45502" lon="4.10943">
        <ele>446.75</ele>
        <time>2012-11-13T14:12:04Z</time>
      </trkpt>
      <trkpt lat="44.45508" lon="4.10932">
        <ele>444</ele>
        <time>2012-11-13T14:12:13Z</time>
      </trkpt>
      <trkpt lat="44.45512" lon="4.10922">
        <ele>445.75</ele>
        <time>2012-11-13T14:12:47Z</time>
      </trkpt>
      <trkpt lat="44.45522" lon="4.10921">
        <ele>444</ele>
        <time>2012-11-13T14:13:10Z</time>
      </trkpt>
      <trkpt lat="44.45531" lon="4.10924">
        <ele>444.5</ele>
        <time>2012-11-13T14:13:44Z</time>
      </trkpt>
      <trkpt lat="44.45539" lon="4.10928">
        <ele>446</ele>
        <time>2012-11-13T14:14:06Z</time>
      </trkpt>
      <trkpt lat="44.45548" lon="4.10931">
        <ele>447.25</ele>
        <time>2012-11-13T14:14:30Z</time>
      </trkpt>
      <trkpt lat="44.45557" lon="4.10931">
        <ele>447</ele>
        <time>2012-11-13T14:14:48Z</time>
      </trkpt>
      <trkpt lat="44.45565" lon="4.10925">
        <ele>450</ele>
        <time>2012-11-13T14:15:18Z</time>
      </trkpt>
      <trkpt lat="44.45573" lon="4.10917">
        <ele>451</ele>
        <time>2012-11-13T14:15:33Z</time>
      </trkpt>
      <trkpt lat="44.45581" lon="4.10911">
        <ele>451.25</ele>
        <time>2012-11-13T14:15:43Z</time>
      </trkpt>
      <trkpt lat="44.45588" lon="4.10903">
        <ele>452.5</ele>
        <time>2012-11-13T14:16:06Z</time>
      </trkpt>
      <trkpt lat="44.45596" lon="4.10896">
        <ele>453.5</ele>
        <time>2012-11-13T14:16:17Z</time>
      </trkpt>
      <trkpt lat="44.45604" lon="4.1089">
        <ele>457.75</ele>
        <time>2012-11-13T14:16:41Z</time>
      </trkpt>
      <trkpt lat="44.45612" lon="4.10884">
        <ele>457.25</ele>
        <time>2012-11-13T14:17:13Z</time>
      </trkpt>
      <trkpt lat="44.45617" lon="4.10872">
        <ele>457</ele>
        <time>2012-11-13T14:17:30Z</time>
      </trkpt>
      <trkpt lat="44.45623" lon="4.10862">
        <ele>457</ele>
        <time>2012-11-13T14:17:42Z</time>
      </trkpt>
      <trkpt lat="44.45632" lon="4.10857">
        <ele>458</ele>
        <time>2012-11-13T14:17:55Z</time>
      </trkpt>
      <trkpt lat="44.45646" lon="4.1085">
        <ele>458.5</ele>
        <time>2012-11-13T14:18:41Z</time>
      </trkpt>
      <trkpt lat="44.45657" lon="4.10843">
        <ele>459</ele>
        <time>2012-11-13T14:18:43Z</time>
      </trkpt>
      <trkpt lat="44.45665" lon="4.10836">
        <ele>462</ele>
        <time>2012-11-13T14:19:01Z</time>
      </trkpt>
      <trkpt lat="44.45673" lon="4.1083">
        <ele>462</ele>
        <time>2012-11-13T14:19:15Z</time>
      </trkpt>
      <trkpt lat="44.45678" lon="4.1082">
        <ele>464</ele>
        <time>2012-11-13T14:19:34Z</time>
      </trkpt>
      <trkpt lat="44.45686" lon="4.10814">
        <ele>465</ele>
        <time>2012-11-13T14:19:47Z</time>
      </trkpt>
      <trkpt lat="44.45692" lon="4.10803">
        <ele>465</ele>
        <time>2012-11-13T14:20:03Z</time>
      </trkpt>
      <trkpt lat="44.45699" lon="4.10795">
        <ele>464.75</ele>
        <time>2012-11-13T14:20:17Z</time>
      </trkpt>
      <trkpt lat="44.45701" lon="4.10783">
        <ele>466.25</ele>
        <time>2012-11-13T14:20:27Z</time>
      </trkpt>
      <trkpt lat="44.45704" lon="4.1077">
        <ele>467</ele>
        <time>2012-11-13T14:20:37Z</time>
      </trkpt>
      <trkpt lat="44.45708" lon="4.10759">
        <ele>467</ele>
        <time>2012-11-13T14:20:56Z</time>
      </trkpt>
      <trkpt lat="44.45709" lon="4.10745">
        <ele>468.75</ele>
        <time>2012-11-13T14:21:12Z</time>
      </trkpt>
      <trkpt lat="44.4571" lon="4.10732">
        <ele>470.5</ele>
        <time>2012-11-13T14:21:25Z</time>
      </trkpt>
      <trkpt lat="44.45709" lon="4.10718">
        <ele>473</ele>
        <time>2012-11-13T14:21:36Z</time>
      </trkpt>
      <trkpt lat="44.45713" lon="4.10706">
        <ele>473.25</ele>
        <time>2012-11-13T14:21:50Z</time>
      </trkpt>
      <trkpt lat="44.45711" lon="4.10693">
        <ele>482</ele>
        <time>2012-11-13T14:23:32Z</time>
      </trkpt>
      <trkpt lat="44.4572" lon="4.10695">
        <ele>485</ele>
        <time>2012-11-13T14:24:57Z</time>
      </trkpt>
      <trkpt lat="44.45729" lon="4.10691">
        <ele>482</ele>
        <time>2012-11-13T14:26:05Z</time>
      </trkpt>
      <trkpt lat="44.45738" lon="4.10688">
        <ele>484</ele>
        <time>2012-11-13T14:26:19Z</time>
      </trkpt>
      <trkpt lat="44.45744" lon="4.10678">
        <ele>485</ele>
        <time>2012-11-13T14:26:31Z</time>
      </trkpt>
      <trkpt lat="44.45751" lon="4.1067">
        <ele>485.25</ele>
        <time>2012-11-13T14:29:35Z</time>
      </trkpt>
      <trkpt lat="44.4576" lon="4.10671">
        <ele>486</ele>
        <time>2012-11-13T14:31:06Z</time>
      </trkpt>
      <trkpt lat="44.45768" lon="4.10677">
        <ele>487</ele>
        <time>2012-11-13T14:31:24Z</time>
      </trkpt>
      <trkpt lat="44.45768" lon="4.10676">
        <ele>489</ele>
        <time>2012-11-13T14:33:06Z</time>
      </trkpt>
      <trkpt lat="44.45786" lon="4.10883">
        <ele>482</ele>
        <time>2012-11-13T14:52:37Z</time>
      </trkpt>
      <trkpt lat="44.45784" lon="4.10896">
        <ele>482</ele>
        <time>2012-11-13T14:52:44Z</time>
      </trkpt>
      <trkpt lat="44.45779" lon="4.10908">
        <ele>483</ele>
        <time>2012-11-13T14:52:56Z</time>
      </trkpt>
      <trkpt lat="44.45773" lon="4.10919">
        <ele>483</ele>
        <time>2012-11-13T14:53:06Z</time>
      </trkpt>
      <trkpt lat="44.45769" lon="4.10931">
        <ele>483</ele>
        <time>2012-11-13T14:53:20Z</time>
      </trkpt>
      <trkpt lat="44.45762" lon="4.10941">
        <ele>483</ele>
        <time>2012-11-13T14:53:32Z</time>
      </trkpt>
      <trkpt lat="44.45755" lon="4.10949">
        <ele>483</ele>
        <time>2012-11-13T14:53:41Z</time>
      </trkpt>
      <trkpt lat="44.45748" lon="4.10958">
        <ele>483</ele>
        <time>2012-11-13T14:53:48Z</time>
      </trkpt>
      <trkpt lat="44.45741" lon="4.10967">
        <ele>484.25</ele>
        <time>2012-11-13T14:53:58Z</time>
      </trkpt>
      <trkpt lat="44.45734" lon="4.10977">
        <ele>485</ele>
        <time>2012-11-13T14:54:07Z</time>
      </trkpt>
      <trkpt lat="44.45729" lon="4.10988">
        <ele>486.25</ele>
        <time>2012-11-13T14:54:16Z</time>
      </trkpt>
      <trkpt lat="44.45723" lon="4.10998">
        <ele>488</ele>
        <time>2012-11-13T14:54:26Z</time>
      </trkpt>
      <trkpt lat="44.45716" lon="4.11008">
        <ele>489</ele>
        <time>2012-11-13T14:54:35Z</time>
      </trkpt>
      <trkpt lat="44.4571" lon="4.11018">
        <ele>490</ele>
        <time>2012-11-13T14:54:44Z</time>
      </trkpt>
      <trkpt lat="44.45705" lon="4.11037">
        <ele>488.25</ele>
        <time>2012-11-13T14:55:41Z</time>
      </trkpt>
      <trkpt lat="44.45697" lon="4.11052">
        <ele>488.75</ele>
        <time>2012-11-13T14:55:43Z</time>
      </trkpt>
      <trkpt lat="44.45691" lon="4.11061">
        <ele>490</ele>
        <time>2012-11-13T14:55:49Z</time>
      </trkpt>
      <trkpt lat="44.45688" lon="4.11074">
        <ele>491</ele>
        <time>2012-11-13T14:55:59Z</time>
      </trkpt>
      <trkpt lat="44.45683" lon="4.11086">
        <ele>492</ele>
        <time>2012-11-13T14:56:11Z</time>
      </trkpt>
      <trkpt lat="44.45679" lon="4.11099">
        <ele>493</ele>
        <time>2012-11-13T14:56:20Z</time>
      </trkpt>
      <trkpt lat="44.4567" lon="4.11107">
        <ele>493.75</ele>
        <time>2012-11-13T14:56:31Z</time>
      </trkpt>
      <trkpt lat="44.45665" lon="4.11117">
        <ele>493.25</ele>
        <time>2012-11-13T14:56:39Z</time>
      </trkpt>
      <trkpt lat="44.45659" lon="4.11129">
        <ele>494</ele>
        <time>2012-11-13T14:56:48Z</time>
      </trkpt>
      <trkpt lat="44.45655" lon="4.11141">
        <ele>495</ele>
        <time>2012-11-13T14:56:56Z</time>
      </trkpt>
      <trkpt lat="44.45651" lon="4.11155">
        <ele>495</ele>
        <time>2012-11-13T14:57:07Z</time>
      </trkpt>
      <trkpt lat="44.45648" lon="4.11168">
        <ele>494.75</ele>
        <time>2012-11-13T14:57:16Z</time>
      </trkpt>
      <trkpt lat="44.45645" lon="4.11179">
        <ele>494</ele>
        <time>2012-11-13T14:57:24Z</time>
      </trkpt>
      <trkpt lat="44.45639" lon="4.11191">
        <ele>494.25</ele>
        <time>2012-11-13T14:57:31Z</time>
      </trkpt>
      <trkpt lat="44.45634" lon="4.11203">
        <ele>495</ele>
        <time>2012-11-13T14:57:42Z</time>
      </trkpt>
      <trkpt lat="44.45627" lon="4.11211">
        <ele>495.75</ele>
        <time>2012-11-13T14:57:51Z</time>
      </trkpt>
      <trkpt lat="44.45621" lon="4.11222">
        <ele>496.25</ele>
        <time>2012-11-13T14:57:59Z</time>
      </trkpt>
      <trkpt lat="44.45614" lon="4.11232">
        <ele>497</ele>
        <time>2012-11-13T14:58:09Z</time>
      </trkpt>
      <trkpt lat="44.4561" lon="4.11243">
        <ele>498</ele>
        <time>2012-11-13T14:58:16Z</time>
      </trkpt>
      <trkpt lat="44.45602" lon="4.11252">
        <ele>498.5</ele>
        <time>2012-11-13T14:58:26Z</time>
      </trkpt>
      <trkpt lat="44.45596" lon="4.11261">
        <ele>499.5</ele>
        <time>2012-11-13T14:58:35Z</time>
      </trkpt>
      <trkpt lat="44.45588" lon="4.1127">
        <ele>501</ele>
        <time>2012-11-13T14:58:45Z</time>
      </trkpt>
      <trkpt lat="44.45582" lon="4.11279">
        <ele>501.5</ele>
        <time>2012-11-13T14:58:54Z</time>
      </trkpt>
      <trkpt lat="44.45574" lon="4.11286">
        <ele>502</ele>
        <time>2012-11-13T14:59:04Z</time>
      </trkpt>
      <trkpt lat="44.45566" lon="4.11292">
        <ele>503</ele>
        <time>2012-11-13T14:59:15Z</time>
      </trkpt>
      <trkpt lat="44.45559" lon="4.113">
        <ele>505</ele>
        <time>2012-11-13T14:59:26Z</time>
      </trkpt>
      <trkpt lat="44.45551" lon="4.11307">
        <ele>507</ele>
        <time>2012-11-13T14:59:37Z</time>
      </trkpt>
      <trkpt lat="44.45542" lon="4.11313">
        <ele>508</ele>
        <time>2012-11-13T14:59:50Z</time>
      </trkpt>
      <trkpt lat="44.45533" lon="4.11315">
        <ele>509</ele>
        <time>2012-11-13T15:00:08Z</time>
      </trkpt>
      <trkpt lat="44.45524" lon="4.11316">
        <ele>509.75</ele>
        <time>2012-11-13T15:00:19Z</time>
      </trkpt>
      <trkpt lat="44.45514" lon="4.11317">
        <ele>510</ele>
        <time>2012-11-13T15:00:32Z</time>
      </trkpt>
      <trkpt lat="44.45505" lon="4.11318">
        <ele>510</ele>
        <time>2012-11-13T15:01:27Z</time>
      </trkpt>
      <trkpt lat="44.45496" lon="4.11323">
        <ele>510</ele>
        <time>2012-11-13T15:01:35Z</time>
      </trkpt>
      <trkpt lat="44.45489" lon="4.11331">
        <ele>509</ele>
        <time>2012-11-13T15:02:23Z</time>
      </trkpt>
      <trkpt lat="44.4548" lon="4.11326">
        <ele>511.75</ele>
        <time>2012-11-13T15:03:52Z</time>
      </trkpt>
      <trkpt lat="44.45472" lon="4.11333">
        <ele>510.5</ele>
        <time>2012-11-13T15:04:08Z</time>
      </trkpt>
      <trkpt lat="44.45465" lon="4.11342">
        <ele>510.5</ele>
        <time>2012-11-13T15:04:16Z</time>
      </trkpt>
      <trkpt lat="44.45459" lon="4.11351">
        <ele>512</ele>
        <time>2012-11-13T15:04:25Z</time>
      </trkpt>
      <trkpt lat="44.45454" lon="4.11361">
        <ele>512</ele>
        <time>2012-11-13T15:04:35Z</time>
      </trkpt>
      <trkpt lat="44.45447" lon="4.1137">
        <ele>512</ele>
        <time>2012-11-13T15:04:53Z</time>
      </trkpt>
      <trkpt lat="44.45439" lon="4.11376">
        <ele>511</ele>
        <time>2012-11-13T15:05:01Z</time>
      </trkpt>
      <trkpt lat="44.4543" lon="4.11374">
        <ele>510</ele>
        <time>2012-11-13T15:05:12Z</time>
      </trkpt>
      <trkpt lat="44.4542" lon="4.11373">
        <ele>509</ele>
        <time>2012-11-13T15:05:26Z</time>
      </trkpt>
      <trkpt lat="44.45411" lon="4.11377">
        <ele>508</ele>
        <time>2012-11-13T15:05:35Z</time>
      </trkpt>
      <trkpt lat="44.45408" lon="4.11389">
        <ele>508</ele>
        <time>2012-11-13T15:06:11Z</time>
      </trkpt>
      <trkpt lat="44.45406" lon="4.11402">
        <ele>508</ele>
        <time>2012-11-13T15:06:22Z</time>
      </trkpt>
      <trkpt lat="44.45405" lon="4.11416">
        <ele>508</ele>
        <time>2012-11-13T15:06:31Z</time>
      </trkpt>
      <trkpt lat="44.45408" lon="4.11429">
        <ele>508</ele>
        <time>2012-11-13T15:06:41Z</time>
      </trkpt>
      <trkpt lat="44.45411" lon="4.11441">
        <ele>508</ele>
        <time>2012-11-13T15:06:52Z</time>
      </trkpt>
      <trkpt lat="44.45405" lon="4.11451">
        <ele>505</ele>
        <time>2012-11-13T15:07:26Z</time>
      </trkpt>
      <trkpt lat="44.45396" lon="4.11457">
        <ele>505</ele>
        <time>2012-11-13T15:07:37Z</time>
      </trkpt>
      <trkpt lat="44.45389" lon="4.11466">
        <ele>504</ele>
        <time>2012-11-13T15:08:11Z</time>
      </trkpt>
      <trkpt lat="44.45381" lon="4.11474">
        <ele>503.5</ele>
        <time>2012-11-13T15:08:22Z</time>
      </trkpt>
      <trkpt lat="44.45375" lon="4.11483">
        <ele>502</ele>
        <time>2012-11-13T15:08:49Z</time>
      </trkpt>
      <trkpt lat="44.45372" lon="4.11495">
        <ele>500.75</ele>
        <time>2012-11-13T15:09:02Z</time>
      </trkpt>
      <trkpt lat="44.45372" lon="4.11508">
        <ele>497.75</ele>
        <time>2012-11-13T15:09:19Z</time>
      </trkpt>
      <trkpt lat="44.45365" lon="4.11516">
        <ele>496</ele>
        <time>2012-11-13T15:09:45Z</time>
      </trkpt>
      <trkpt lat="44.45357" lon="4.11524">
        <ele>494.75</ele>
        <time>2012-11-13T15:10:04Z</time>
      </trkpt>
      <trkpt lat="44.45348" lon="4.11527">
        <ele>493.25</ele>
        <time>2012-11-13T15:10:19Z</time>
      </trkpt>
      <trkpt lat="44.45341" lon="4.11535">
        <ele>492</ele>
        <time>2012-11-13T15:10:37Z</time>
      </trkpt>
      <trkpt lat="44.45332" lon="4.11539">
        <ele>489.75</ele>
        <time>2012-11-13T15:10:52Z</time>
      </trkpt>
      <trkpt lat="44.45327" lon="4.11528">
        <ele>488</ele>
        <time>2012-11-13T15:11:09Z</time>
      </trkpt>
      <trkpt lat="44.45322" lon="4.11516">
        <ele>488</ele>
        <time>2012-11-13T15:11:19Z</time>
      </trkpt>
      <trkpt lat="44.45318" lon="4.11504">
        <ele>488</ele>
        <time>2012-11-13T15:11:28Z</time>
      </trkpt>
      <trkpt lat="44.45314" lon="4.11492">
        <ele>487.75</ele>
        <time>2012-11-13T15:11:40Z</time>
      </trkpt>
      <trkpt lat="44.45311" lon="4.11479">
        <ele>488</ele>
        <time>2012-11-13T15:11:49Z</time>
      </trkpt>
      <trkpt lat="44.45307" lon="4.11468">
        <ele>488</ele>
        <time>2012-11-13T15:11:57Z</time>
      </trkpt>
      <trkpt lat="44.45298" lon="4.11465">
        <ele>486.5</ele>
        <time>2012-11-13T15:12:12Z</time>
      </trkpt>
      <trkpt lat="44.45289" lon="4.11467">
        <ele>484.5</ele>
        <time>2012-11-13T15:14:01Z</time>
      </trkpt>
      <trkpt lat="44.4528" lon="4.11469">
        <ele>483.25</ele>
        <time>2012-11-13T15:14:16Z</time>
      </trkpt>
      <trkpt lat="44.45271" lon="4.11473">
        <ele>480.5</ele>
        <time>2012-11-13T15:14:28Z</time>
      </trkpt>
      <trkpt lat="44.45262" lon="4.11482">
        <ele>477</ele>
        <time>2012-11-13T15:15:40Z</time>
      </trkpt>
      <trkpt lat="44.45253" lon="4.11479">
        <ele>476</ele>
        <time>2012-11-13T15:16:21Z</time>
      </trkpt>
      <trkpt lat="44.45245" lon="4.11473">
        <ele>475</ele>
        <time>2012-11-13T15:16:31Z</time>
      </trkpt>
      <trkpt lat="44.45239" lon="4.11462">
        <ele>475</ele>
        <time>2012-11-13T15:16:43Z</time>
      </trkpt>
      <trkpt lat="44.45231" lon="4.11468">
        <ele>472</ele>
        <time>2012-11-13T15:17:01Z</time>
      </trkpt>
      <trkpt lat="44.45227" lon="4.11481">
        <ele>471.75</ele>
        <time>2012-11-13T15:17:12Z</time>
      </trkpt>
      <trkpt lat="44.45219" lon="4.11484">
        <ele>470.25</ele>
        <time>2012-11-13T15:17:25Z</time>
      </trkpt>
      <trkpt lat="44.4521" lon="4.11483">
        <ele>467</ele>
        <time>2012-11-13T15:17:43Z</time>
      </trkpt>
      <trkpt lat="44.45204" lon="4.11473">
        <ele>464</ele>
        <time>2012-11-13T15:18:11Z</time>
      </trkpt>
      <trkpt lat="44.45194" lon="4.11471">
        <ele>463</ele>
        <time>2012-11-13T15:18:23Z</time>
      </trkpt>
      <trkpt lat="44.45185" lon="4.11473">
        <ele>461</ele>
        <time>2012-11-13T15:18:38Z</time>
      </trkpt>
      <trkpt lat="44.45176" lon="4.11475">
        <ele>456.5</ele>
        <time>2012-11-13T15:18:58Z</time>
      </trkpt>
      <trkpt lat="44.4517" lon="4.11465">
        <ele>454.5</ele>
        <time>2012-11-13T15:19:13Z</time>
      </trkpt>
      <trkpt lat="44.45164" lon="4.11455">
        <ele>453</ele>
        <time>2012-11-13T15:19:24Z</time>
      </trkpt>
      <trkpt lat="44.45158" lon="4.11445">
        <ele>449.5</ele>
        <time>2012-11-13T15:19:35Z</time>
      </trkpt>
      <trkpt lat="44.45156" lon="4.11431">
        <ele>446.25</ele>
        <time>2012-11-13T15:19:49Z</time>
      </trkpt>
      <trkpt lat="44.45153" lon="4.1142">
        <ele>444.75</ele>
        <time>2012-11-13T15:19:56Z</time>
      </trkpt>
      <trkpt lat="44.45148" lon="4.11408">
        <ele>442.75</ele>
        <time>2012-11-13T15:20:07Z</time>
      </trkpt>
      <trkpt lat="44.45147" lon="4.11395">
        <ele>440.75</ele>
        <time>2012-11-13T15:20:15Z</time>
      </trkpt>
      <trkpt lat="44.45152" lon="4.11385">
        <ele>440</ele>
        <time>2012-11-13T15:20:25Z</time>
      </trkpt>
      <trkpt lat="44.45155" lon="4.11372">
        <ele>440</ele>
        <time>2012-11-13T15:20:36Z</time>
      </trkpt>
      <trkpt lat="44.45161" lon="4.11362">
        <ele>439.75</ele>
        <time>2012-11-13T15:20:43Z</time>
      </trkpt>
      <trkpt lat="44.45163" lon="4.11348">
        <ele>440</ele>
        <time>2012-11-13T15:20:55Z</time>
      </trkpt>
      <trkpt lat="44.45166" lon="4.11336">
        <ele>439.25</ele>
        <time>2012-11-13T15:21:04Z</time>
      </trkpt>
      <trkpt lat="44.45167" lon="4.11323">
        <ele>438.5</ele>
        <time>2012-11-13T15:21:16Z</time>
      </trkpt>
      <trkpt lat="44.45158" lon="4.11321">
        <ele>437</ele>
        <time>2012-11-13T15:21:28Z</time>
      </trkpt>
      <trkpt lat="44.4515" lon="4.11329">
        <ele>437.25</ele>
        <time>2012-11-13T15:21:37Z</time>
      </trkpt>
      <trkpt lat="44.45143" lon="4.11339">
        <ele>438</ele>
        <time>2012-11-13T15:21:46Z</time>
      </trkpt>
      <trkpt lat="44.45151" lon="4.11332">
        <ele>437</ele>
        <time>2012-11-13T15:22:00Z</time>
      </trkpt>
      <trkpt lat="44.45156" lon="4.1132">
        <ele>436</ele>
        <time>2012-11-13T15:22:09Z</time>
      </trkpt>
      <trkpt lat="44.45161" lon="4.11308">
        <ele>434.25</ele>
        <time>2012-11-13T15:22:17Z</time>
      </trkpt>
      <trkpt lat="44.45165" lon="4.11295">
        <ele>433</ele>
        <time>2012-11-13T15:22:25Z</time>
      </trkpt>
      <trkpt lat="44.45169" lon="4.11283">
        <ele>432</ele>
        <time>2012-11-13T15:22:34Z</time>
      </trkpt>
      <trkpt lat="44.45174" lon="4.11273">
        <ele>433</ele>
        <time>2012-11-13T15:22:47Z</time>
      </trkpt>
      <trkpt lat="44.45161" lon="4.11276">
        <ele>429</ele>
        <time>2012-11-13T15:23:42Z</time>
      </trkpt>
      <trkpt lat="44.45152" lon="4.11279">
        <ele>427.25</ele>
        <time>2012-11-13T15:23:48Z</time>
      </trkpt>
      <trkpt lat="44.45143" lon="4.11285">
        <ele>427</ele>
        <time>2012-11-13T15:24:01Z</time>
      </trkpt>
      <trkpt lat="44.45137" lon="4.11296">
        <ele>424.75</ele>
        <time>2012-11-13T15:24:12Z</time>
      </trkpt>
      <trkpt lat="44.45131" lon="4.11305">
        <ele>424</ele>
        <time>2012-11-13T15:24:22Z</time>
      </trkpt>
      <trkpt lat="44.45124" lon="4.11315">
        <ele>422.75</ele>
        <time>2012-11-13T15:24:35Z</time>
      </trkpt>
      <trkpt lat="44.45116" lon="4.11323">
        <ele>422.5</ele>
        <time>2012-11-13T15:24:46Z</time>
      </trkpt>
      <trkpt lat="44.45112" lon="4.11335">
        <ele>420.5</ele>
        <time>2012-11-13T15:24:58Z</time>
      </trkpt>
      <trkpt lat="44.45105" lon="4.11343">
        <ele>419</ele>
        <time>2012-11-13T15:25:11Z</time>
      </trkpt>
      <trkpt lat="44.45099" lon="4.11353">
        <ele>418</ele>
        <time>2012-11-13T15:25:23Z</time>
      </trkpt>
      <trkpt lat="44.45092" lon="4.11362">
        <ele>415.75</ele>
        <time>2012-11-13T15:25:36Z</time>
      </trkpt>
      <trkpt lat="44.45086" lon="4.11372">
        <ele>413.75</ele>
        <time>2012-11-13T15:25:47Z</time>
      </trkpt>
      <trkpt lat="44.4508" lon="4.11382">
        <ele>412.25</ele>
        <time>2012-11-13T15:25:56Z</time>
      </trkpt>
      <trkpt lat="44.45075" lon="4.11393">
        <ele>409.5</ele>
        <time>2012-11-13T15:26:09Z</time>
      </trkpt>
      <trkpt lat="44.45069" lon="4.11404">
        <ele>408</ele>
        <time>2012-11-13T15:26:19Z</time>
      </trkpt>
      <trkpt lat="44.45063" lon="4.11413">
        <ele>406.5</ele>
        <time>2012-11-13T15:26:30Z</time>
      </trkpt>
      <trkpt lat="44.45055" lon="4.11421">
        <ele>404.5</ele>
        <time>2012-11-13T15:26:41Z</time>
      </trkpt>
      <trkpt lat="44.45048" lon="4.1143">
        <ele>402.75</ele>
        <time>2012-11-13T15:26:51Z</time>
      </trkpt>
      <trkpt lat="44.45043" lon="4.1144">
        <ele>402</ele>
        <time>2012-11-13T15:27:02Z</time>
      </trkpt>
      <trkpt lat="44.45039" lon="4.11452">
        <ele>400.25</ele>
        <time>2012-11-13T15:27:11Z</time>
      </trkpt>
      <trkpt lat="44.45033" lon="4.11463">
        <ele>399.25</ele>
        <time>2012-11-13T15:27:20Z</time>
      </trkpt>
      <trkpt lat="44.45028" lon="4.11474">
        <ele>396.25</ele>
        <time>2012-11-13T15:27:32Z</time>
      </trkpt>
      <trkpt lat="44.45019" lon="4.11479">
        <ele>395</ele>
        <time>2012-11-13T15:27:44Z</time>
      </trkpt>
      <trkpt lat="44.45014" lon="4.11491">
        <ele>393.5</ele>
        <time>2012-11-13T15:27:55Z</time>
      </trkpt>
      <trkpt lat="44.45006" lon="4.11498">
        <ele>392</ele>
        <time>2012-11-13T15:28:04Z</time>
      </trkpt>
      <trkpt lat="44.45001" lon="4.11509">
        <ele>391.75</ele>
        <time>2012-11-13T15:28:14Z</time>
      </trkpt>
      <trkpt lat="44.44994" lon="4.11518">
        <ele>390.25</ele>
        <time>2012-11-13T15:28:24Z</time>
      </trkpt>
      <trkpt lat="44.44989" lon="4.1153">
        <ele>389</ele>
        <time>2012-11-13T15:28:33Z</time>
      </trkpt>
      <trkpt lat="44.44983" lon="4.11541">
        <ele>388</ele>
        <time>2012-11-13T15:28:42Z</time>
      </trkpt>
      <trkpt lat="44.44976" lon="4.11548">
        <ele>389</ele>
        <time>2012-11-13T15:28:52Z</time>
      </trkpt>
      <trkpt lat="44.4497" lon="4.1156">
        <ele>389</ele>
        <time>2012-11-13T15:28:59Z</time>
      </trkpt>
      <trkpt lat="44.44962" lon="4.11568">
        <ele>388</ele>
        <time>2012-11-13T15:29:08Z</time>
      </trkpt>
      <trkpt lat="44.44957" lon="4.11579">
        <ele>387.5</ele>
        <time>2012-11-13T15:29:17Z</time>
      </trkpt>
      <trkpt lat="44.44953" lon="4.1159">
        <ele>386.5</ele>
        <time>2012-11-13T15:29:24Z</time>
      </trkpt>
      <trkpt lat="44.44947" lon="4.116">
        <ele>384</ele>
        <time>2012-11-13T15:29:34Z</time>
      </trkpt>
      <trkpt lat="44.44939" lon="4.11609">
        <ele>382</ele>
        <time>2012-11-13T15:29:43Z</time>
      </trkpt>
      <trkpt lat="44.4493" lon="4.11613">
        <ele>382</ele>
        <time>2012-11-13T15:29:52Z</time>
      </trkpt>
      <trkpt lat="44.44921" lon="4.11618">
        <ele>383</ele>
        <time>2012-11-13T15:30:02Z</time>
      </trkpt>
      <trkpt lat="44.44913" lon="4.11624">
        <ele>382</ele>
        <time>2012-11-13T15:30:13Z</time>
      </trkpt>
      <trkpt lat="44.44904" lon="4.11629">
        <ele>381</ele>
        <time>2012-11-13T15:30:22Z</time>
      </trkpt>
      <trkpt lat="44.44896" lon="4.11635">
        <ele>381</ele>
        <time>2012-11-13T15:30:34Z</time>
      </trkpt>
      <trkpt lat="44.44887" lon="4.1164">
        <ele>381.5</ele>
        <time>2012-11-13T15:30:44Z</time>
      </trkpt>
      <trkpt lat="44.44877" lon="4.11643">
        <ele>382</ele>
        <time>2012-11-13T15:30:53Z</time>
      </trkpt>
      <trkpt lat="44.44868" lon="4.11646">
        <ele>381.75</ele>
        <time>2012-11-13T15:31:02Z</time>
      </trkpt>
      <trkpt lat="44.44858" lon="4.11647">
        <ele>380</ele>
        <time>2012-11-13T15:31:11Z</time>
      </trkpt>
      <trkpt lat="44.44849" lon="4.1165">
        <ele>379</ele>
        <time>2012-11-13T15:31:20Z</time>
      </trkpt>
      <trkpt lat="44.4484" lon="4.11655">
        <ele>379</ele>
        <time>2012-11-13T15:31:29Z</time>
      </trkpt>
      <trkpt lat="44.44833" lon="4.11664">
        <ele>378</ele>
        <time>2012-11-13T15:31:39Z</time>
      </trkpt>
      <trkpt lat="44.44825" lon="4.11671">
        <ele>377</ele>
        <time>2012-11-13T15:31:49Z</time>
      </trkpt>
      <trkpt lat="44.44818" lon="4.11679">
        <ele>375</ele>
        <time>2012-11-13T15:32:02Z</time>
      </trkpt>
      <trkpt lat="44.4481" lon="4.11685">
        <ele>371</ele>
        <time>2012-11-13T15:32:18Z</time>
      </trkpt>
      <trkpt lat="44.44801" lon="4.11689">
        <ele>369</ele>
        <time>2012-11-13T15:32:29Z</time>
      </trkpt>
      <trkpt lat="44.44793" lon="4.11696">
        <ele>367</ele>
        <time>2012-11-13T15:32:40Z</time>
      </trkpt>
      <trkpt lat="44.44785" lon="4.11701">
        <ele>366.5</ele>
        <time>2012-11-13T15:32:49Z</time>
      </trkpt>
      <trkpt lat="44.44777" lon="4.11708">
        <ele>366</ele>
        <time>2012-11-13T15:32:57Z</time>
      </trkpt>
      <trkpt lat="44.44768" lon="4.11713">
        <ele>365</ele>
        <time>2012-11-13T15:33:09Z</time>
      </trkpt>
      <trkpt lat="44.44759" lon="4.11717">
        <ele>364</ele>
        <time>2012-11-13T15:33:17Z</time>
      </trkpt>
      <trkpt lat="44.44751" lon="4.11724">
        <ele>363</ele>
        <time>2012-11-13T15:33:32Z</time>
      </trkpt>
      <trkpt lat="44.44743" lon="4.11729">
        <ele>362</ele>
        <time>2012-11-13T15:33:40Z</time>
      </trkpt>
      <trkpt lat="44.44734" lon="4.11734">
        <ele>362</ele>
        <time>2012-11-13T15:33:48Z</time>
      </trkpt>
      <trkpt lat="44.44724" lon="4.11739">
        <ele>362</ele>
        <time>2012-11-13T15:33:56Z</time>
      </trkpt>
      <trkpt lat="44.44715" lon="4.11745">
        <ele>362</ele>
        <time>2012-11-13T15:34:05Z</time>
      </trkpt>
      <trkpt lat="44.44707" lon="4.1175">
        <ele>361.5</ele>
        <time>2012-11-13T15:34:14Z</time>
      </trkpt>
      <trkpt lat="44.44698" lon="4.11754">
        <ele>360.75</ele>
        <time>2012-11-13T15:34:22Z</time>
      </trkpt>
      <trkpt lat="44.44688" lon="4.11757">
        <ele>360</ele>
        <time>2012-11-13T15:34:32Z</time>
      </trkpt>
      <trkpt lat="44.44679" lon="4.11759">
        <ele>360</ele>
        <time>2012-11-13T15:34:41Z</time>
      </trkpt>
      <trkpt lat="44.4467" lon="4.1176">
        <ele>359.5</ele>
        <time>2012-11-13T15:34:52Z</time>
      </trkpt>
      <trkpt lat="44.4466" lon="4.1176">
        <ele>359</ele>
        <time>2012-11-13T15:35:02Z</time>
      </trkpt>
      <trkpt lat="44.44651" lon="4.11763">
        <ele>360</ele>
        <time>2012-11-13T15:35:10Z</time>
      </trkpt>
      <trkpt lat="44.44652" lon="4.11776">
        <ele>359.5</ele>
        <time>2012-11-13T15:35:21Z</time>
      </trkpt>
      <trkpt lat="44.4465" lon="4.11789">
        <ele>359</ele>
        <time>2012-11-13T15:35:50Z</time>
      </trkpt>
      <trkpt lat="44.44642" lon="4.11796">
        <ele>358</ele>
        <time>2012-11-13T15:36:06Z</time>
      </trkpt>
      <trkpt lat="44.44637" lon="4.11808">
        <ele>357</ele>
        <time>2012-11-13T15:36:32Z</time>
      </trkpt>
      <trkpt lat="44.4463" lon="4.11815">
        <ele>356</ele>
        <time>2012-11-13T15:36:46Z</time>
      </trkpt>
      <trkpt lat="44.44622" lon="4.11824">
        <ele>355.75</ele>
        <time>2012-11-13T15:36:57Z</time>
      </trkpt>
      <trkpt lat="44.44613" lon="4.11828">
        <ele>354.25</ele>
        <time>2012-11-13T15:37:42Z</time>
      </trkpt>
      <trkpt lat="44.44599" lon="4.11833">
        <ele>351.75</ele>
        <time>2012-11-13T15:37:44Z</time>
      </trkpt>
      <trkpt lat="44.4459" lon="4.11836">
        <ele>350</ele>
        <time>2012-11-13T15:37:47Z</time>
      </trkpt>
      <trkpt lat="44.44581" lon="4.11839">
        <ele>347.5</ele>
        <time>2012-11-13T15:38:03Z</time>
      </trkpt>
      <trkpt lat="44.44573" lon="4.11846">
        <ele>344</ele>
        <time>2012-11-13T15:38:19Z</time>
      </trkpt>
      <trkpt lat="44.44566" lon="4.11854">
        <ele>342</ele>
        <time>2012-11-13T15:38:37Z</time>
      </trkpt>
      <trkpt lat="44.44556" lon="4.11856">
        <ele>341</ele>
        <time>2012-11-13T15:38:48Z</time>
      </trkpt>
      <trkpt lat="44.44551" lon="4.11845">
        <ele>339</ele>
        <time>2012-11-13T15:39:00Z</time>
      </trkpt>
      <trkpt lat="44.44548" lon="4.11832">
        <ele>338</ele>
        <time>2012-11-13T15:39:14Z</time>
      </trkpt>
      <trkpt lat="44.44544" lon="4.11821">
        <ele>337.5</ele>
        <time>2012-11-13T15:39:44Z</time>
      </trkpt>
      <trkpt lat="44.44543" lon="4.11809">
        <ele>335</ele>
        <time>2012-11-13T15:40:15Z</time>
      </trkpt>
      <trkpt lat="44.44538" lon="4.11819">
        <ele>333.75</ele>
        <time>2012-11-13T15:40:57Z</time>
      </trkpt>
      <trkpt lat="44.4453" lon="4.11827">
        <ele>332</ele>
        <time>2012-11-13T15:41:10Z</time>
      </trkpt>
      <trkpt lat="44.44528" lon="4.11839">
        <ele>330.75</ele>
        <time>2012-11-13T15:41:30Z</time>
      </trkpt>
      <trkpt lat="44.44529" lon="4.11852">
        <ele>329</ele>
        <time>2012-11-13T15:42:04Z</time>
      </trkpt>
      <trkpt lat="44.44532" lon="4.11866">
        <ele>328</ele>
        <time>2012-11-13T15:42:15Z</time>
      </trkpt>
      <trkpt lat="44.44534" lon="4.11878">
        <ele>327</ele>
        <time>2012-11-13T15:42:31Z</time>
      </trkpt>
      <trkpt lat="44.44527" lon="4.11886">
        <ele>326.25</ele>
        <time>2012-11-13T15:42:41Z</time>
      </trkpt>
      <trkpt lat="44.44518" lon="4.11892">
        <ele>323.75</ele>
        <time>2012-11-13T15:42:57Z</time>
      </trkpt>
      <trkpt lat="44.44512" lon="4.11903">
        <ele>321.25</ele>
        <time>2012-11-13T15:43:07Z</time>
      </trkpt>
      <trkpt lat="44.44506" lon="4.11912">
        <ele>320.5</ele>
        <time>2012-11-13T15:43:19Z</time>
      </trkpt>
      <trkpt lat="44.44502" lon="4.11924">
        <ele>318.5</ele>
        <time>2012-11-13T15:43:29Z</time>
      </trkpt>
      <trkpt lat="44.445" lon="4.11937">
        <ele>316.75</ele>
        <time>2012-11-13T15:43:36Z</time>
      </trkpt>
      <trkpt lat="44.44498" lon="4.1195">
        <ele>316</ele>
        <time>2012-11-13T15:43:46Z</time>
      </trkpt>
      <trkpt lat="44.44499" lon="4.11963">
        <ele>315</ele>
        <time>2012-11-13T15:43:55Z</time>
      </trkpt>
      <trkpt lat="44.445" lon="4.11977">
        <ele>313</ele>
        <time>2012-11-13T15:44:08Z</time>
      </trkpt>
      <trkpt lat="44.44505" lon="4.11988">
        <ele>310</ele>
        <time>2012-11-13T15:44:26Z</time>
      </trkpt>
      <trkpt lat="44.44514" lon="4.11994">
        <ele>307.5</ele>
        <time>2012-11-13T15:44:41Z</time>
      </trkpt>
      <trkpt lat="44.44524" lon="4.11996">
        <ele>307</ele>
        <time>2012-11-13T15:44:51Z</time>
      </trkpt>
      <trkpt lat="44.44532" lon="4.12">
        <ele>306.5</ele>
        <time>2012-11-13T15:45:02Z</time>
      </trkpt>
      <trkpt lat="44.44542" lon="4.11999">
        <ele>306</ele>
        <time>2012-11-13T15:45:12Z</time>
      </trkpt>
      <trkpt lat="44.4455" lon="4.12005">
        <ele>306</ele>
        <time>2012-11-13T15:45:24Z</time>
      </trkpt>
      <trkpt lat="44.44559" lon="4.12004">
        <ele>304</ele>
        <time>2012-11-13T15:45:36Z</time>
      </trkpt>
      <trkpt lat="44.44569" lon="4.12007">
        <ele>303</ele>
        <time>2012-11-13T15:45:45Z</time>
      </trkpt>
      <trkpt lat="44.44578" lon="4.12008">
        <ele>302</ele>
        <time>2012-11-13T15:45:55Z</time>
      </trkpt>
      <trkpt lat="44.44588" lon="4.12008">
        <ele>301.75</ele>
        <time>2012-11-13T15:46:07Z</time>
      </trkpt>
      <trkpt lat="44.44597" lon="4.12004">
        <ele>302</ele>
        <time>2012-11-13T15:46:18Z</time>
      </trkpt>
      <trkpt lat="44.44606" lon="4.12007">
        <ele>301.5</ele>
        <time>2012-11-13T15:46:31Z</time>
      </trkpt>
      <trkpt lat="44.44615" lon="4.1201">
        <ele>300</ele>
        <time>2012-11-13T15:47:00Z</time>
      </trkpt>
      <trkpt lat="44.4462" lon="4.12022">
        <ele>299</ele>
        <time>2012-11-13T15:47:26Z</time>
      </trkpt>
      <trkpt lat="44.44629" lon="4.12024">
        <ele>300.25</ele>
        <time>2012-11-13T15:47:35Z</time>
      </trkpt>
      <trkpt lat="44.44639" lon="4.12022">
        <ele>300.25</ele>
        <time>2012-11-13T15:47:44Z</time>
      </trkpt>
      <trkpt lat="44.44648" lon="4.1202">
        <ele>301</ele>
        <time>2012-11-13T15:47:56Z</time>
      </trkpt>
      <trkpt lat="44.44657" lon="4.12016">
        <ele>300.25</ele>
        <time>2012-11-13T15:48:06Z</time>
      </trkpt>
      <trkpt lat="44.44666" lon="4.12012">
        <ele>299</ele>
        <time>2012-11-13T15:48:14Z</time>
      </trkpt>
      <trkpt lat="44.44676" lon="4.12013">
        <ele>297</ele>
        <time>2012-11-13T15:48:24Z</time>
      </trkpt>
      <trkpt lat="44.44685" lon="4.1201">
        <ele>296</ele>
        <time>2012-11-13T15:48:33Z</time>
      </trkpt>
      <trkpt lat="44.44695" lon="4.12011">
        <ele>296</ele>
        <time>2012-11-13T15:48:42Z</time>
      </trkpt>
      <trkpt lat="44.44704" lon="4.1201">
        <ele>295</ele>
        <time>2012-11-13T15:48:50Z</time>
      </trkpt>
      <trkpt lat="44.44713" lon="4.12009">
        <ele>295</ele>
        <time>2012-11-13T15:49:00Z</time>
      </trkpt>
      <trkpt lat="44.44723" lon="4.12011">
        <ele>294.75</ele>
        <time>2012-11-13T15:49:11Z</time>
      </trkpt>
      <trkpt lat="44.44733" lon="4.12011">
        <ele>295</ele>
        <time>2012-11-13T15:49:19Z</time>
      </trkpt>
      <trkpt lat="44.44743" lon="4.12012">
        <ele>296</ele>
        <time>2012-11-13T15:49:30Z</time>
      </trkpt>
      <trkpt lat="44.44753" lon="4.1201">
        <ele>295</ele>
        <time>2012-11-13T15:49:40Z</time>
      </trkpt>
      <trkpt lat="44.44762" lon="4.12012">
        <ele>295</ele>
        <time>2012-11-13T15:49:48Z</time>
      </trkpt>
      <trkpt lat="44.44772" lon="4.12009">
        <ele>295</ele>
        <time>2012-11-13T15:49:57Z</time>
      </trkpt>
      <trkpt lat="44.44783" lon="4.11999">
        <ele>294.75</ele>
        <time>2012-11-13T15:50:39Z</time>
      </trkpt>
      <trkpt lat="44.44794" lon="4.11991">
        <ele>294.5</ele>
        <time>2012-11-13T15:50:40Z</time>
      </trkpt>
      <trkpt lat="44.44804" lon="4.11983">
        <ele>294.5</ele>
        <time>2012-11-13T15:50:41Z</time>
      </trkpt>
      <trkpt lat="44.44814" lon="4.11975">
        <ele>294.25</ele>
        <time>2012-11-13T15:50:42Z</time>
      </trkpt>
      <trkpt lat="44.44823" lon="4.11968">
        <ele>294.5</ele>
        <time>2012-11-13T15:50:52Z</time>
      </trkpt>
      <trkpt lat="44.44831" lon="4.11964">
        <ele>295</ele>
        <time>2012-11-13T15:51:10Z</time>
      </trkpt>
      <trkpt lat="44.44841" lon="4.11954">
        <ele>296</ele>
        <time>2012-11-13T15:51:14Z</time>
      </trkpt>
      <trkpt lat="44.4485" lon="4.11951">
        <ele>297.5</ele>
        <time>2012-11-13T15:51:23Z</time>
      </trkpt>
      <trkpt lat="44.44859" lon="4.11944">
        <ele>298.75</ele>
        <time>2012-11-13T15:51:32Z</time>
      </trkpt>
      <trkpt lat="44.44867" lon="4.11937">
        <ele>298.75</ele>
        <time>2012-11-13T15:51:42Z</time>
      </trkpt>
      <trkpt lat="44.44877" lon="4.11935">
        <ele>298.5</ele>
        <time>2012-11-13T15:51:54Z</time>
      </trkpt>
      <trkpt lat="44.44886" lon="4.11935">
        <ele>300.75</ele>
        <time>2012-11-13T15:52:05Z</time>
      </trkpt>
      <trkpt lat="44.44895" lon="4.11941">
        <ele>303.5</ele>
        <time>2012-11-13T15:52:16Z</time>
      </trkpt>
      <trkpt lat="44.44891" lon="4.11952">
        <ele>304</ele>
        <time>2012-11-13T15:52:40Z</time>
      </trkpt>
      <trkpt lat="44.44882" lon="4.11956">
        <ele>306</ele>
        <time>2012-11-13T15:52:50Z</time>
      </trkpt>
      <trkpt lat="44.44874" lon="4.11962">
        <ele>306</ele>
        <time>2012-11-13T15:53:03Z</time>
      </trkpt>
      <trkpt lat="44.44869" lon="4.11972">
        <ele>304.5</ele>
        <time>2012-11-13T15:53:09Z</time>
      </trkpt>
      <trkpt lat="44.44867" lon="4.11987">
        <ele>303</ele>
        <time>2012-11-13T15:53:15Z</time>
      </trkpt>
      <trkpt lat="44.44868" lon="4.12">
        <ele>302.75</ele>
        <time>2012-11-13T15:53:24Z</time>
      </trkpt>
      <trkpt lat="44.44866" lon="4.12013">
        <ele>303</ele>
        <time>2012-11-13T15:53:36Z</time>
      </trkpt>
      <trkpt lat="44.4486" lon="4.12023">
        <ele>304</ele>
        <time>2012-11-13T15:53:48Z</time>
      </trkpt>
      <trkpt lat="44.44852" lon="4.1203">
        <ele>303.25</ele>
        <time>2012-11-13T15:53:58Z</time>
      </trkpt>
      <trkpt lat="44.44845" lon="4.12039">
        <ele>302.75</ele>
        <time>2012-11-13T15:54:08Z</time>
      </trkpt>
      <trkpt lat="44.44837" lon="4.12046">
        <ele>305</ele>
        <time>2012-11-13T15:54:17Z</time>
      </trkpt>
      <trkpt lat="44.4483" lon="4.12054">
        <ele>305</ele>
        <time>2012-11-13T15:54:27Z</time>
      </trkpt>
      <trkpt lat="44.44821" lon="4.1206">
        <ele>305</ele>
        <time>2012-11-13T15:54:35Z</time>
      </trkpt>
      <trkpt lat="44.44813" lon="4.1207">
        <ele>303.5</ele>
        <time>2012-11-13T15:54:45Z</time>
      </trkpt>
      <trkpt lat="44.44809" lon="4.1208">
        <ele>303</ele>
        <time>2012-11-13T15:54:53Z</time>
      </trkpt>
      <trkpt lat="44.44802" lon="4.12089">
        <ele>302.25</ele>
        <time>2012-11-13T15:55:02Z</time>
      </trkpt>
      <trkpt lat="44.44796" lon="4.12101">
        <ele>301</ele>
        <time>2012-11-13T15:55:11Z</time>
      </trkpt>
      <trkpt lat="44.4479" lon="4.12112">
        <ele>300</ele>
        <time>2012-11-13T15:55:18Z</time>
      </trkpt>
      <trkpt lat="44.44785" lon="4.12124">
        <ele>298.75</ele>
        <time>2012-11-13T15:55:28Z</time>
      </trkpt>
      <trkpt lat="44.44779" lon="4.12135">
        <ele>297</ele>
        <time>2012-11-13T15:55:36Z</time>
      </trkpt>
      <trkpt lat="44.44772" lon="4.12144">
        <ele>296</ele>
        <time>2012-11-13T15:55:44Z</time>
      </trkpt>
      <trkpt lat="44.44765" lon="4.12153">
        <ele>296</ele>
        <time>2012-11-13T15:55:54Z</time>
      </trkpt>
      <trkpt lat="44.44758" lon="4.12163">
        <ele>295</ele>
        <time>2012-11-13T15:56:03Z</time>
      </trkpt>
      <trkpt lat="44.44751" lon="4.12171">
        <ele>294</ele>
        <time>2012-11-13T15:56:11Z</time>
      </trkpt>
      <trkpt lat="44.44743" lon="4.1218">
        <ele>294</ele>
        <time>2012-11-13T15:56:19Z</time>
      </trkpt>
      <trkpt lat="44.44734" lon="4.12185">
        <ele>294</ele>
        <time>2012-11-13T15:56:28Z</time>
      </trkpt>
      <trkpt lat="44.44725" lon="4.1219">
        <ele>294</ele>
        <time>2012-11-13T15:56:37Z</time>
      </trkpt>
      <trkpt lat="44.44717" lon="4.12198">
        <ele>293.25</ele>
        <time>2012-11-13T15:56:45Z</time>
      </trkpt>
      <trkpt lat="44.44708" lon="4.12204">
        <ele>293</ele>
        <time>2012-11-13T15:56:56Z</time>
      </trkpt>
      <trkpt lat="44.447" lon="4.12213">
        <ele>293.5</ele>
        <time>2012-11-13T15:57:05Z</time>
      </trkpt>
      <trkpt lat="44.44693" lon="4.12221">
        <ele>293.5</ele>
        <time>2012-11-13T15:57:14Z</time>
      </trkpt>
      <trkpt lat="44.44684" lon="4.12229">
        <ele>291.25</ele>
        <time>2012-11-13T15:57:23Z</time>
      </trkpt>
      <trkpt lat="44.44675" lon="4.12235">
        <ele>289.75</ele>
        <time>2012-11-13T15:57:31Z</time>
      </trkpt>
      <trkpt lat="44.44667" lon="4.12237">
        <ele>291.25</ele>
        <time>2012-11-13T15:57:40Z</time>
      </trkpt>
      <trkpt lat="44.44658" lon="4.12242">
        <ele>291.25</ele>
        <time>2012-11-13T15:57:48Z</time>
      </trkpt>
      <trkpt lat="44.44652" lon="4.12253">
        <ele>287</ele>
        <time>2012-11-13T15:57:57Z</time>
      </trkpt>
      <trkpt lat="44.44647" lon="4.12266">
        <ele>285</ele>
        <time>2012-11-13T15:58:05Z</time>
      </trkpt>
      <trkpt lat="44.4464" lon="4.12275">
        <ele>286.25</ele>
        <time>2012-11-13T15:58:16Z</time>
      </trkpt>
      <trkpt lat="44.44632" lon="4.12282">
        <ele>287.5</ele>
        <time>2012-11-13T15:58:24Z</time>
      </trkpt>
      <trkpt lat="44.44626" lon="4.12292">
        <ele>288</ele>
        <time>2012-11-13T15:58:32Z</time>
      </trkpt>
      <trkpt lat="44.44621" lon="4.12303">
        <ele>287.25</ele>
        <time>2012-11-13T15:58:40Z</time>
      </trkpt>
      <trkpt lat="44.44616" lon="4.12314">
        <ele>288</ele>
        <time>2012-11-13T15:58:49Z</time>
      </trkpt>
      <trkpt lat="44.44613" lon="4.12327">
        <ele>287.25</ele>
        <time>2012-11-13T15:58:57Z</time>
      </trkpt>
      <trkpt lat="44.44606" lon="4.12347">
        <ele>285.75</ele>
        <time>2012-11-13T15:59:41Z</time>
      </trkpt>
      <trkpt lat="44.44599" lon="4.1236">
        <ele>285</ele>
        <time>2012-11-13T15:59:42Z</time>
      </trkpt>
      <trkpt lat="44.44593" lon="4.12374">
        <ele>284.5</ele>
        <time>2012-11-13T15:59:43Z</time>
      </trkpt>
      <trkpt lat="44.44586" lon="4.12387">
        <ele>284</ele>
        <time>2012-11-13T15:59:44Z</time>
      </trkpt>
      <trkpt lat="44.44585" lon="4.124">
        <ele>282</ele>
        <time>2012-11-13T15:59:51Z</time>
      </trkpt>
      <trkpt lat="44.44585" lon="4.12413">
        <ele>281</ele>
        <time>2012-11-13T15:59:57Z</time>
      </trkpt>
      <trkpt lat="44.44589" lon="4.12427">
        <ele>282</ele>
        <time>2012-11-13T16:00:06Z</time>
      </trkpt>
      <trkpt lat="44.44594" lon="4.12438">
        <ele>281.5</ele>
        <time>2012-11-13T16:00:12Z</time>
      </trkpt>
      <trkpt lat="44.446" lon="4.12449">
        <ele>282</ele>
        <time>2012-11-13T16:00:19Z</time>
      </trkpt>
      <trkpt lat="44.44607" lon="4.1246">
        <ele>283</ele>
        <time>2012-11-13T16:00:29Z</time>
      </trkpt>
      <trkpt lat="44.44614" lon="4.12469">
        <ele>283</ele>
        <time>2012-11-13T16:00:37Z</time>
      </trkpt>
      <trkpt lat="44.44622" lon="4.12479">
        <ele>282</ele>
        <time>2012-11-13T16:00:46Z</time>
      </trkpt>
      <trkpt lat="44.4463" lon="4.12487">
        <ele>281</ele>
        <time>2012-11-13T16:00:54Z</time>
      </trkpt>
      <trkpt lat="44.44638" lon="4.12493">
        <ele>281</ele>
        <time>2012-11-13T16:01:05Z</time>
      </trkpt>
      <trkpt lat="44.44647" lon="4.12496">
        <ele>281</ele>
        <time>2012-11-13T16:01:11Z</time>
      </trkpt>
      <trkpt lat="44.44656" lon="4.12502">
        <ele>281</ele>
        <time>2012-11-13T16:01:21Z</time>
      </trkpt>
      <trkpt lat="44.44664" lon="4.12508">
        <ele>280</ele>
        <time>2012-11-13T16:01:29Z</time>
      </trkpt>
      <trkpt lat="44.44672" lon="4.12514">
        <ele>280.5</ele>
        <time>2012-11-13T16:01:37Z</time>
      </trkpt>
      <trkpt lat="44.44681" lon="4.12515">
        <ele>281</ele>
        <time>2012-11-13T16:01:44Z</time>
      </trkpt>
      <trkpt lat="44.44689" lon="4.12523">
        <ele>280.75</ele>
        <time>2012-11-13T16:01:53Z</time>
      </trkpt>
      <trkpt lat="44.44696" lon="4.12531">
        <ele>280</ele>
        <time>2012-11-13T16:02:02Z</time>
      </trkpt>
      <trkpt lat="44.44704" lon="4.12539">
        <ele>281.75</ele>
        <time>2012-11-13T16:02:12Z</time>
      </trkpt>
      <trkpt lat="44.44713" lon="4.12547">
        <ele>282</ele>
        <time>2012-11-13T16:02:21Z</time>
      </trkpt>
      <trkpt lat="44.44721" lon="4.12553">
        <ele>281.5</ele>
        <time>2012-11-13T16:02:29Z</time>
      </trkpt>
      <trkpt lat="44.4473" lon="4.12559">
        <ele>281</ele>
        <time>2012-11-13T16:02:37Z</time>
      </trkpt>
      <trkpt lat="44.44737" lon="4.12567">
        <ele>282</ele>
        <time>2012-11-13T16:02:46Z</time>
      </trkpt>
      <trkpt lat="44.44747" lon="4.12572">
        <ele>282</ele>
        <time>2012-11-13T16:02:55Z</time>
      </trkpt>
      <trkpt lat="44.44754" lon="4.1258">
        <ele>283</ele>
        <time>2012-11-13T16:03:04Z</time>
      </trkpt>
      <trkpt lat="44.44762" lon="4.12587">
        <ele>283</ele>
        <time>2012-11-13T16:03:12Z</time>
      </trkpt>
      <trkpt lat="44.44769" lon="4.12593">
        <ele>282</ele>
        <time>2012-11-13T16:03:19Z</time>
      </trkpt>
      <trkpt lat="44.44778" lon="4.126">
        <ele>282</ele>
        <time>2012-11-13T16:03:29Z</time>
      </trkpt>
      <trkpt lat="44.44787" lon="4.12601">
        <ele>282</ele>
        <time>2012-11-13T16:03:36Z</time>
      </trkpt>
      <trkpt lat="44.44797" lon="4.12605">
        <ele>281.25</ele>
        <time>2012-11-13T16:03:44Z</time>
      </trkpt>
      <trkpt lat="44.44806" lon="4.12606">
        <ele>281</ele>
        <time>2012-11-13T16:03:54Z</time>
      </trkpt>
      <trkpt lat="44.44815" lon="4.12604">
        <ele>280.5</ele>
        <time>2012-11-13T16:04:02Z</time>
      </trkpt>
      <trkpt lat="44.44823" lon="4.12596">
        <ele>280</ele>
        <time>2012-11-13T16:04:07Z</time>
      </trkpt>
      <trkpt lat="44.44834" lon="4.12593">
        <ele>280.75</ele>
        <time>2012-11-13T16:04:16Z</time>
      </trkpt>
      <trkpt lat="44.44843" lon="4.12589">
        <ele>281</ele>
        <time>2012-11-13T16:04:25Z</time>
      </trkpt>
      <trkpt lat="44.4485" lon="4.12582">
        <ele>281</ele>
        <time>2012-11-13T16:04:35Z</time>
      </trkpt>
      <trkpt lat="44.44852" lon="4.12581">
        <ele>281</ele>
        <time>2012-11-13T16:04:39Z</time>
      </trkpt>
    </trkseg>
  </trk>
</gpx>